Flight Track Log - Related Links

Times and Time Zones

All times are in EDT time to prevent confusion due to time zone crossing. See the AWE46 flight status page for this flight to view local times or setup timezone preferences in your user account.

Time Position Orientation Groundspeed Altitude Reporting Facility
EDT Latitude Longitude Course Direction KTS MPH feet Rate Location/Type
Sat 08:06:24 PM 41.9659 -87.8874 91° East 170 196 1,200  Level FlightAware ADS-B
Sat 08:06:45 PM 41.9648 -87.8656 95° East 176 203 2,100 2,341 Climbing FlightAware ADS-B
Sat 08:07:05 PM 41.9635 -87.8431 95° East 190 219 2,800 1,692 Climbing FlightAware ADS-B
Sat 08:07:24 PM 41.9621 -87.8190 94° East 214 246 3,200 1,440 Climbing FlightAware ADS-B
Sat 08:07:55 PM 41.9609 -87.7765 92° East 249 287 4,000 1,529 Climbing FlightAware ADS-B
Sat 08:08:15 PM 41.9625 -87.7442 77° East 267 307 4,500 2,368 Climbing FlightAware ADS-B
Sat 08:08:33 PM 41.9712 -87.7157 59° Northeast 269 310 5,500 2,769 Climbing FlightAware ADS-B
Sat 08:08:54 PM 41.9854 -87.6856 57° Northeast 280 322 6,300 2,353 Climbing FlightAware ADS-B
Sat 08:09:24 PM 42.0074 -87.6402 58° Northeast 297 342 7,500 2,235 Climbing FlightAware ADS-B
Sat 08:09:45 PM 42.0225 -87.6084 57° Northeast 310 357 8,200 2,488 Climbing FlightAware ADS-B
Sat 08:10:05 PM 42.0385 -87.5748 58° Northeast 312 359 9,200 2,880 Climbing FlightAware ADS-B
Sat 08:10:35 PM 42.0619 -87.5253 57° Northeast 318 366 10,600 2,105 Climbing FlightAware ADS-B
Sat 08:11:02 PM 42.0849 -87.4773 58° Northeast 351 404 11,200 1,322 Climbing FlightAware ADS-B
Sat 08:11:34 PM 42.1140 -87.4157 58° Northeast 383 441 11,900 1,750 Climbing FlightAware ADS-B
Sat 08:12:14 PM 42.1405 -87.3590 58° Northeast 403 464 13,300 2,582 Climbing FlightAware ADS-B
Sat 08:12:53 PM 42.1904 -87.2524 58° Northeast 407 468 15,300 2,550 Climbing FlightAware ADS-B
Sat 08:13:34 PM 42.2313 -87.1653 58° Northeast 422 486 16,700 2,296 Climbing FlightAware ADS-B
Sat 08:14:14 PM 42.2713 -87.0653 77° East 450 518 18,400 2,114 Climbing FlightAware ADS-B
Sat 08:15:02 PM 42.2811 -86.9561 86° East 464 534 19,800 1,868 Climbing FlightAware ADS-B
Sat 08:16:00 PM 42.2889 -86.7597 87° East 481 554 21,700 1,871 Climbing FlightAware ADS-B
Sat 08:16:35 PM 42.2929 -86.6543 87° East 491 565 22,700 1,754 Climbing FlightAware ADS-B
Sat 08:17:05 PM 42.2963 -86.5616 87° East 497 572 23,600 1,800 Climbing FlightAware ADS-B
Sat 08:17:35 PM 42.2994 -86.4782 87° East 505 581 24,500 1,739 Climbing FlightAware ADS-B
Sat 08:18:14 PM 42.3040 -86.3472 87° East 513 590 25,600 1,565 Climbing FlightAware ADS-B
Sat 08:18:44 PM 42.3077 -86.2463 87° East 520 598 26,300 1,437 Climbing FlightAware ADS-B
Sat 08:19:25 PM 42.3115 -86.1189 89° East 529 609 27,300 1,407 Climbing FlightAware ADS-B
Sat 08:20:05 PM 42.3115 -85.9836 91° East 536 617 28,200 1,457 Climbing FlightAware ADS-B
Sat 08:20:35 PM 42.3106 -85.8849 91° East 539 620 29,000 1,700 Climbing FlightAware ADS-B
Sat 08:21:05 PM 42.3092 -85.7824 91° East 536 617 29,900 1,600 Climbing FlightAware ADS-B
Sat 08:21:35 PM 42.3077 -85.6814 91° East 539 620 30,600 1,300 Climbing FlightAware ADS-B
Sat 08:22:05 PM 42.3065 -85.5892 91° East 541 623 31,200 1,300 Climbing FlightAware ADS-B
Sat 08:22:35 PM 42.3048 -85.4821 91° East 541 623 31,900 1,200 Climbing FlightAware ADS-B
Sat 08:23:05 PM 42.3030 -85.3771 91° East 544 626 32,400 900 Climbing FlightAware ADS-B
Sat 08:23:35 PM 42.3015 -85.2742 91° East 550 633 32,800 514 Climbing FlightAware ADS-B
Sat 08:24:15 PM 42.2989 -85.1411 91° East 557 641 33,000 152 Climbing FlightAware ADS-B
Sat 08:24:54 PM 42.2965 -85.0097 92° East 558 642 33,000  Level FlightAware ADS-B
Sat 08:25:35 PM 42.2929 -84.8627 92° East 554 638 33,000  Level FlightAware ADS-B
Sat 08:26:14 PM 42.2898 -84.7406 92° East 552 635 33,000  Level FlightAware ADS-B
Sat 08:26:49 PM 42.2866 -84.6196 92° East 551 634 33,000  Level FlightAware ADS-B
Sat 08:27:20 PM 42.2848 -84.5317 86° East 544 626 33,000  Level FlightAware ADS-B
Sat 08:28:34 PM 42.3142 -84.2543 79° East 528 608 33,000  Level FlightAware ADS-B
Sat 08:31:44 PM 42.3997 -83.6449 77° East 520 598 33,000  Level FlightAware ADS-B (CYYZ)
Sat 08:32:19 PM 42.4208 -83.5430 71° East 508 585 33,000  Level FlightAware ADS-B (CYYZ)
Sat 08:32:48 PM 42.4454 -83.4486 70° East 505 581 33,000  Level FlightAware ADS-B (CYYZ)
Sat 08:33:18 PM 42.4692 -83.3595 70° East 505 581 33,000  Level FlightAware ADS-B (CYYZ)
Sat 08:33:48 PM 42.4924 -83.2729 70° East 503 579 33,000  Level FlightAware ADS-B (CYYZ)
Sat 08:34:19 PM 42.5169 -83.1812 70° East 502 578 33,000  Level FlightAware ADS-B (CYYZ)
Sat 08:34:49 PM 42.5401 -83.0944 70° East 501 577 33,000  Level FlightAware ADS-B (CYYZ)
Sat 08:35:19 PM 42.5631 -83.0070 70° East 500 575 33,000  Level FlightAware ADS-B (CYYZ)
Sat 08:35:49 PM 42.5873 -82.9152 70° East 499 574 33,000  Level FlightAware ADS-B (CYYZ)
Sat 08:36:00 PM 42.5835 -82.9298 70° East 499 574 33,000  Level FlightAware ADS-B (EPLB / LUZ)
Sat 08:36:19 PM 42.6103 -82.8273 70° East 499 574 33,000  Level FlightAware ADS-B (CYYZ)
Sat 08:36:49 PM 42.6335 -82.7382 70° East 499 574 33,000  Level FlightAware ADS-B (CYYZ)
Sat 08:36:51 PM 42.6277 -82.7607 71° East 500 575 33,000  Level FlightAware ADS-B (EPLB / LUZ)
Sat 08:37:19 PM 42.6555 -82.6539 70° East 499 574 33,000  Level FlightAware ADS-B (CYYZ)
Sat 08:37:22 PM 42.6592 -82.6397 70° East 499 574 33,000  Level FlightAware ADS-B (EPLB / LUZ)
Sat 08:37:48 PM 42.6779 -82.5670 70° East 499 574 33,000  Level FlightAware ADS-B (CYYZ)
Sat 08:38:19 PM 42.7016 -82.4752 70° East 499 574 33,000  Level FlightAware ADS-B (CYYZ)
Sat 08:38:49 PM 42.7246 -82.3860 70° East 499 574 33,000  Level FlightAware ADS-B (CYYZ)
Sat 08:38:59 PM 42.7313 -82.3592 71° East 500 575 33,000  Level FlightAware ADS-B (EPLB / LUZ)
Sat 08:39:18 PM 42.7476 -82.2952 70° East 500 575 33,000  Level FlightAware ADS-B (CYYZ)
Sat 08:39:49 PM 42.7703 -82.2061 70° East 500 575 33,000  Level FlightAware ADS-B (CYYZ)
Sat 08:40:19 PM 42.7923 -82.1201 70° East 500 575 33,000  Level FlightAware ADS-B (CYYZ)
Sat 08:40:48 PM 42.8153 -82.0291 70° East 500 575 33,000  Level FlightAware ADS-B (CYYZ)
Sat 08:41:19 PM 42.8376 -81.9410 71° East 500 575 33,000  Level FlightAware ADS-B (CYYZ)
Sat 08:41:24 PM 42.8312 -81.9666 71° East 502 578 33,000  Level FlightAware ADS-B (EPLB / LUZ)
Sat 08:41:49 PM 42.8599 -81.8526 71° East 501 577 33,000  Level FlightAware ADS-B (CYYZ)
Sat 08:42:16 PM 42.8803 -81.7707 71° East 502 578 33,000  Level FlightAware ADS-B (EPLB / LUZ)
Sat 08:42:19 PM 42.8827 -81.7611 71° East 502 578 33,000  Level FlightAware ADS-B (CYYZ)
Sat 08:42:49 PM 42.9054 -81.6698 71° East 500 575 33,000  Level FlightAware ADS-B (CYYZ)
Sat 08:42:51 PM 42.9073 -81.6619 71° East 501 577 33,000  Level FlightAware ADS-B (EPLB / LUZ)
Sat 08:43:19 PM 42.9279 -81.5790 71° East 500 575 33,000  Level FlightAware ADS-B (CYYZ)
Sat 08:43:27 PM 42.9327 -81.5599 72° East 501 577 33,000  Level FlightAware ADS-B (EPLB / LUZ)
Sat 08:43:49 PM 42.9493 -81.4925 71° East 499 574 33,000  Level FlightAware ADS-B (CYYZ)
Sat 08:44:06 PM 42.9624 -81.4396 71° East 498 573 33,000  Level FlightAware ADS-B (EPLB / LUZ)
Sat 08:44:19 PM 42.9718 -81.4015 71° East 498 573 33,000  Level FlightAware ADS-B (CYYZ)
Sat 08:44:39 PM 42.9814 -81.3622 72° East 497 572 33,000  Level FlightAware ADS-B (EPLB / LUZ)
Sat 08:44:49 PM 42.9938 -81.3117 71° East 497 572 33,000  Level FlightAware ADS-B (CYYZ)
Sat 08:45:19 PM 43.0154 -81.2231 71° East 496 571 33,000  Level FlightAware ADS-B (CYYZ)
Sat 08:45:48 PM 43.0370 -81.1346 71° East 496 571 33,000  Level FlightAware ADS-B (CYYZ)
Sat 08:46:12 PM 43.0534 -81.0702 71° East 495 570 33,000  Level FlightAware ADS-B (EPLB / LUZ)
Sat 08:46:18 PM 43.0596 -81.0461 70° East 495 570 33,000  Level FlightAware ADS-B (CYYZ)
Sat 08:46:49 PM 43.0824 -80.9570 70° East 495 570 33,000  Level FlightAware ADS-B (CYYZ)
Sat 08:47:02 PM 43.0927 -80.9169 71° East 496 571 33,000  Level FlightAware ADS-B (EPLB / LUZ)
Sat 08:47:18 PM 43.1049 -80.8690 70° East 496 571 33,000  Level FlightAware ADS-B (CYYZ)
Sat 08:47:34 PM 43.1155 -80.8269 71° East 497 572 33,000  Level FlightAware ADS-B (CYKF)
Sat 08:47:49 PM 43.1277 -80.7789 70° East 497 572 33,000  Level FlightAware ADS-B (CYYZ)
Sat 08:48:16 PM 43.1481 -80.6973 71° East 499 574 33,000  Level FlightAware ADS-B (EPLB / LUZ)
Sat 08:48:18 PM 43.1499 -80.6901 71° East 498 573 33,000  Level FlightAware ADS-B (CYYZ)
Sat 08:48:48 PM 43.1722 -80.6012 71° East 499 574 33,000  Level FlightAware ADS-B (CYYZ)
Sat 08:48:52 PM 43.1746 -80.5909 71° East 501 577 33,000  Level FlightAware ADS-B (EPLB / LUZ)
Sat 08:49:19 PM 43.1948 -80.5100 71° East 501 577 33,000  Level FlightAware ADS-B (CYYZ)
Sat 08:49:27 PM 43.2012 -80.4841 71° East 504 580 33,000  Level FlightAware ADS-B (EPLB / LUZ)
Sat 08:49:49 PM 43.2172 -80.4201 71° East 506 582 33,000  Level FlightAware ADS-B (CYYZ)
Sat 08:50:05 PM 43.2293 -80.3708 71° East 509 586 33,000  Level FlightAware ADS-B (EPLB / LUZ)
Sat 08:50:18 PM 43.2398 -80.3288 71° East 511 588 33,000  Level FlightAware ADS-B (CYYZ)
Sat 08:50:49 PM 43.2623 -80.2376 71° East 517 595 33,000  Level FlightAware ADS-B (CYYZ)
Sat 08:51:04 PM 43.2743 -80.1884 71° East 520 598 33,000  Level FlightAware ADS-B (EPLB / LUZ)
Sat 08:51:18 PM 43.2820 -80.1571 71° East 523 602 33,000  Level FlightAware ADS-B (CYYZ)
Sat 08:51:49 PM 43.3069 -80.0553 71° East 529 609 33,000  Level FlightAware ADS-B (CYYZ)
Sat 08:51:54 PM 43.3112 -80.0374 72° East 530 610 33,000  Level FlightAware ADS-B (EPLB / LUZ)
Sat 08:52:18 PM 43.3303 -79.9583 71° East 530 610 33,000  Level FlightAware ADS-B (CYYZ)
Sat 08:52:32 PM 43.3399 -79.9183 72° East 522 601 33,000  Level FlightAware ADS-B (CYKF)
Sat 08:53:07 PM 43.3680 -79.8019 72° East 503 579 33,000  Level FlightAware ADS-B (EPLB / LUZ)
Sat 08:53:08 PM 43.3689 -79.7976 71° East 502 578 33,000  Level FlightAware ADS-B (CYYZ)
Sat 08:53:38 PM 43.3908 -79.7065 71° East 494 568 33,000  Level FlightAware ADS-B (CYYZ)
Sat 08:54:08 PM 43.4113 -79.6212 71° East 489 563 33,000  Level FlightAware ADS-B (CYYZ)
Sat 08:54:20 PM 43.4204 -79.5836 72° East 490 564 33,000  Level FlightAware ADS-B (EPLB / LUZ)
Sat 08:54:38 PM 43.4336 -79.5293 71° East 488 562 33,000  Level FlightAware ADS-B (CYYZ)
Sat 08:55:00 PM 43.4484 -79.4674 72° East 490 564 33,000  Level FlightAware ADS-B (EPLB / LUZ)
Sat 08:55:09 PM 43.4547 -79.4414 71° East 490 564 33,000  Level FlightAware ADS-B (CYYZ)
Sat 08:55:32 PM 43.4705 -79.3745 72° East 489 563 33,000  Level FlightAware ADS-B (EPLB / LUZ)
Sat 08:55:39 PM 43.4757 -79.3527 72° East 488 562 33,000  Level FlightAware ADS-B (CYYZ)
Sat 08:56:09 PM 43.4964 -79.2641 72° East 488 562 33,000  Level FlightAware ADS-B (CYYZ)
Sat 08:56:12 PM 43.4986 -79.2554 72° East 489 563 33,000  Level FlightAware ADS-B (EPLB / LUZ)
Sat 08:56:39 PM 43.5172 -79.1769 72° East 487 560 33,000  Level FlightAware ADS-B (CYYZ)
Sat 08:56:43 PM 43.5203 -79.1634 72° East 488 562 33,000  Level FlightAware ADS-B (EPLB / LUZ)
Sat 08:57:08 PM 43.5379 -79.0885 72° East 486 559 33,000  Level FlightAware ADS-B (CYYZ)
Sat 08:57:24 PM 43.5482 -79.0437 72° East 486 559 33,000  Level FlightAware ADS-B (EPLB / LUZ)
Sat 08:57:39 PM 43.5584 -79.0003 72° East 485 558 33,000  Level FlightAware ADS-B (CYYZ)
Sat 08:57:55 PM 43.5697 -78.9515 72° East 485 558 33,000  Level FlightAware ADS-B (EPLB / LUZ)
Sat 08:58:08 PM 43.5793 -78.9103 72° East 484 557 33,000  Level FlightAware ADS-B (CYYZ)
Sat 08:58:35 PM 43.5986 -78.8344 69° East 480 552 33,000  Level FlightAware ADS-B (EPLB / LUZ)
Sat 08:58:54 PM 43.6145 -78.7815 66° East 477 549 33,000  Level FlightAware ADS-B (CYYZ)
Sat 08:59:07 PM 43.6264 -78.7445 66° East 476 548 33,000  Level FlightAware ADS-B (EPLB / LUZ)
Sat 08:59:24 PM 43.6415 -78.6980 65° Northeast 475 547 33,000  Level FlightAware ADS-B (CYYZ)
Sat 08:59:48 PM 43.6521 -78.6668 65° Northeast 475 547 33,000  Level FlightAware ADS-B (EPLB / LUZ)
Sat 08:59:53 PM 43.6691 -78.6171 64° Northeast 473 544 33,000  Level FlightAware ADS-B (CYYZ)
Sat 09:00:23 PM 43.6973 -78.5350 64° Northeast 473 544 33,000  Level FlightAware ADS-B (CYYZ)
Sat 09:00:33 PM 43.6803 -78.5844 65° Northeast 473 544 33,000  Level FlightAware ADS-B (CYKF)
Sat 09:00:53 PM 43.7254 -78.4529 64° Northeast 472 543 33,000  Level FlightAware ADS-B (CYYZ)
Sat 09:01:23 PM 43.7536 -78.3713 64° Northeast 471 542 33,000  Level FlightAware ADS-B (CYYZ)
Sat 09:01:35 PM 43.7635 -78.3425 65° Northeast 471 542 33,000  Level FlightAware ADS-B (CYKF)
Sat 09:01:53 PM 43.7814 -78.2905 64° Northeast 470 541 33,000  Level FlightAware ADS-B (CYYZ)
Sat 09:02:24 PM 43.8088 -78.2101 64° Northeast 468 539 33,000  Level FlightAware ADS-B (CYYZ)
Sat 09:02:53 PM 43.8370 -78.1279 64° Northeast 467 537 33,000  Level FlightAware ADS-B (CYYZ)
Sat 09:03:23 PM 43.8647 -78.0462 64° Northeast 466 536 33,000  Level FlightAware ADS-B (CYYZ)
Sat 09:03:53 PM 43.8919 -77.9657 65° Northeast 467 537 33,000  Level FlightAware ADS-B (CYYZ)
Sat 09:04:24 PM 43.9192 -77.8843 64° Northeast 467 537 33,000  Level FlightAware ADS-B (CYYZ)
Sat 09:04:44 PM 43.9343 -77.8398 65° Northeast 469 540 33,000  Level FlightAware ADS-B
Sat 09:04:53 PM 43.9467 -77.8029 65° Northeast 468 539 33,000  Level FlightAware ADS-B (CYYZ)
Sat 09:05:17 PM 43.9687 -77.7376 65° Northeast 469 540 33,000  Level FlightAware ADS-B
Sat 09:05:23 PM 43.9709 -77.7310 65° Northeast 468 539 33,000  Level FlightAware ADS-B (CYYZ)
Sat 09:05:47 PM 43.9951 -77.6579 65° Northeast 469 540 33,000  Level FlightAware ADS-B
Sat 09:05:53 PM 44.0011 -77.6401 65° Northeast 469 540 33,000  Level FlightAware ADS-B (CYYZ)
Sat 09:06:22 PM 44.0279 -77.5599 65° Northeast 469 540 33,000  Level FlightAware ADS-B
Sat 09:06:24 PM 44.0285 -77.5577 65° Northeast 469 540 33,000  Level FlightAware ADS-B (CYYZ)
Sat 09:06:53 PM 44.0560 -77.4753 65° Northeast 469 540 33,000  Level FlightAware ADS-B (CYYZ)
Sat 09:07:06 PM 44.0676 -77.4407 66° East 469 540 33,000  Level FlightAware ADS-B
Sat 09:07:24 PM 44.0830 -77.3937 65° Northeast 469 540 33,000  Level FlightAware ADS-B (CYYZ)
Sat 09:07:45 PM 44.0959 -77.3547 65° Northeast 470 541 33,000  Level FlightAware ADS-B
Sat 09:07:54 PM 44.1098 -77.3125 65° Northeast 469 540 33,000  Level FlightAware ADS-B (CYYZ)
Sat 09:08:18 PM 44.1300 -77.2510 65° Northeast 469 540 33,000  Level FlightAware ADS-B (CYGK)
Sat 09:08:23 PM 44.1372 -77.2290 65° Northeast 470 541 33,000  Level FlightAware ADS-B (CYYZ)
Sat 09:08:27 PM 44.1158 -77.2945 66° East 470 541 33,000  Level FlightAware ADS-B
Sat 09:08:53 PM 44.1635 -77.1492 65° Northeast 471 542 33,000  Level FlightAware ADS-B (CYYZ)
Sat 09:09:02 PM 44.1721 -77.1233 66° East 473 544 33,000  Level FlightAware ADS-B
Sat 09:09:24 PM 44.1906 -77.0664 65° Northeast 473 544 33,000  Level FlightAware ADS-B (CYYZ)
Sat 09:09:45 PM 44.2104 -77.0057 66° East 474 545 33,000  Level FlightAware ADS-B
Sat 09:09:53 PM 44.2177 -76.9831 65° Northeast 474 545 33,000  Level FlightAware ADS-B (CYYZ)
Sat 09:10:15 PM 44.2387 -76.9190 66° East 477 549 33,000  Level FlightAware ADS-B
Sat 09:10:23 PM 44.2461 -76.8961 65° Northeast 478 550 33,000  Level FlightAware ADS-B (CYYZ)
Sat 09:10:47 PM 44.2650 -76.8384 66° East 485 558 33,000  Level FlightAware ADS-B
Sat 09:10:54 PM 44.2732 -76.8128 65° Northeast 485 558 33,000  Level FlightAware ADS-B (CYYZ)
Sat 09:11:19 PM 44.2969 -76.7390 66° East 488 562 33,000  Level FlightAware ADS-B
Sat 09:11:49 PM 44.3249 -76.6523 66° East 488 562 33,000  Level FlightAware ADS-B
Sat 09:11:54 PM 44.3292 -76.6391 65° Northeast 488 562 33,000  Level FlightAware ADS-B (CYYZ)
Sat 09:12:22 PM 44.3549 -76.5589 66° East 487 560 33,000  Level FlightAware ADS-B
Sat 09:12:23 PM 44.3563 -76.5549 65° Northeast 486 559 33,000  Level FlightAware ADS-B (CYYZ)
Sat 09:12:52 PM 44.3830 -76.4713 66° East 487 560 33,000  Level FlightAware ADS-B
Sat 09:12:53 PM 44.3839 -76.4684 66° East 486 559 33,000  Level FlightAware ADS-B (CYYZ)
Sat 09:13:23 PM 44.4103 -76.3854 66° East 486 559 33,000  Level FlightAware ADS-B (CYYZ)
Sat 09:13:25 PM 44.4131 -76.3766 66° East 486 559 33,000  Level FlightAware ADS-B
Sat 09:13:53 PM 44.4387 -76.2951 66° East 485 558 33,000  Level FlightAware ADS-B (CYYZ)
Sat 09:13:56 PM 44.4383 -76.2963 66° East 486 559 33,000  Level FlightAware ADS-B
Sat 09:14:23 PM 44.4660 -76.2092 66° East 484 557 33,000  Level FlightAware ADS-B (CYYZ)
Sat 09:14:33 PM 44.4723 -76.1885 66° East 484 557 33,000  Level FlightAware ADS-B (CYGK)
Sat 09:14:35 PM 44.4740 -76.1830 66° East 485 558 33,000  Level FlightAware ADS-B
Sat 09:14:51 PM 44.4869 -76.1423 66° East 484 557 33,000  Level FlightAware ADS-B (CYYZ)
Sat 09:15:04 PM 44.5030 -76.0920 66° East 484 557 33,000  Level FlightAware ADS-B
Sat 09:15:09 PM 44.5058 -76.0820 67° East 484 557 33,000  Level FlightAware ADS-B
Sat 09:15:35 PM 44.5310 -76.0040 66° East 484 557 33,000  Level FlightAware ADS-B
Sat 09:15:46 PM 44.5379 -75.9803 66° East 483 556 33,000  Level FlightAware ADS-B (CYGK)
Sat 09:16:12 PM 44.5630 -75.8980 66° East 484 557 33,000  Level FlightAware ADS-B
Sat 09:16:16 PM 44.5660 -75.8898 67° East 483 556 33,000  Level FlightAware ADS-B
Sat 09:16:46 PM 44.5939 -75.8005 67° East 482 555 33,000  Level FlightAware ADS-B
Sat 09:17:00 PM 44.6050 -75.7640 66° East 484 557 33,000  Level FlightAware ADS-B
Sat 09:17:29 PM 44.6316 -75.6783 67° East 482 555 33,000  Level FlightAware ADS-B
Sat 09:17:35 PM 44.6370 -75.6590 66° East 482 555 33,000  Level FlightAware ADS-B
Sat 09:17:59 PM 44.6581 -75.5924 67° East 482 555 33,000  Level FlightAware ADS-B
Sat 09:18:05 PM 44.6640 -75.5740 66° East 483 556 33,000  Level FlightAware ADS-B
Sat 09:18:31 PM 44.6869 -75.4991 67° East 482 555 33,000  Level FlightAware ADS-B
Sat 09:18:42 PM 44.6950 -75.4720 66° East 483 556 33,000  Level FlightAware ADS-B
Sat 09:19:02 PM 44.7137 -75.4117 67° East 482 555 33,000  Level FlightAware ADS-B
Sat 09:19:12 PM 44.7220 -75.3850 66° East 483 556 33,000  Level FlightAware ADS-B
Sat 09:19:34 PM 44.7418 -75.3190 67° East 483 556 33,000  Level FlightAware ADS-B
Sat 09:19:47 PM 44.7520 -75.2870 66° East 484 557 33,000  Level FlightAware ADS-B
Sat 09:20:05 PM 44.7684 -75.2322 67° East 483 556 33,000  Level FlightAware ADS-B
Sat 09:20:17 PM 44.7800 -75.1950 66° East 484 557 33,000  Level FlightAware ADS-B
Sat 09:20:46 PM 44.8042 -75.1139 67° East 483 556 33,000  Level FlightAware ADS-B
Sat 09:20:48 PM 44.8060 -75.1070 67° East 484 557 33,000  Level FlightAware ADS-B
Sat 09:21:22 PM 44.8357 -75.0094 67° East 483 556 33,000  Level FlightAware ADS-B
Sat 09:21:23 PM 44.8370 -75.0050 66° East 483 556 33,000  Level FlightAware ADS-B
Sat 09:22:00 PM 44.8690 -74.8990 67° East 485 558 33,000  Level FlightAware ADS-B
Sat 09:22:04 PM 44.8730 -74.8854 67° East 485 558 33,000  Level FlightAware ADS-B
Sat 09:22:33 PM 44.8980 -74.8010 67° East 485 558 33,000  Level FlightAware ADS-B
Sat 09:22:35 PM 44.8989 -74.7982 67° East 485 558 33,000  Level FlightAware ADS-B
Sat 09:23:09 PM 44.9290 -74.6960 67° East 485 558 33,000  Level FlightAware ADS-B
Sat 09:23:17 PM 44.9365 -74.6725 67° East 485 558 33,000  Level FlightAware ADS-B
Sat 09:23:48 PM 44.9629 -74.5841 68° East 484 557 33,000  Level FlightAware ADS-B
Sat 09:23:55 PM 44.9690 -74.5620 67° East 486 559 33,000  Level FlightAware ADS-B
Sat 09:24:25 PM 44.9950 -74.4750 67° East 485 558 33,000  Level FlightAware ADS-B
Sat 09:24:33 PM 45.0017 -74.4524 68° East 484 557 33,000  Level FlightAware ADS-B
Sat 09:25:01 PM 45.0260 -74.3700 67° East 486 559 33,000  Level FlightAware ADS-B
Sat 09:25:05 PM 45.0283 -74.3613 68° East 485 558 33,000  Level FlightAware ADS-B
Sat 09:25:31 PM 45.0510 -74.2840 67° East 486 559 33,000  Level FlightAware ADS-B
Sat 09:25:52 PM 45.0689 -74.2228 68° East 485 558 33,000  Level FlightAware ADS-B
Sat 09:26:08 PM 45.0820 -74.1770 67° East 486 559 33,000  Level FlightAware ADS-B
Sat 09:26:30 PM 45.1021 -74.1089 68° East 486 559 33,000  Level FlightAware ADS-B
Sat 09:26:37 PM 45.1070 -74.0930 67° East 487 560 33,000  Level FlightAware ADS-B
Sat 09:27:07 PM 45.1330 -74.0010 67° East 488 562 33,000  Level FlightAware ADS-B
Sat 09:27:15 PM 45.1398 -73.9790 68° East 488 562 33,000  Level FlightAware ADS-B
Sat 09:27:44 PM 45.1640 -73.8940 67° East 487 560 33,000  Level FlightAware ADS-B
Sat 09:27:45 PM 45.1651 -73.8913 68° East 486 559 33,000  Level FlightAware ADS-B
Sat 09:28:16 PM 45.1917 -73.7995 68° East 486 559 33,000  Level FlightAware ADS-B
Sat 09:28:19 PM 45.1940 -73.7910 67° East 486 559 33,000  Level FlightAware ADS-B
Sat 09:28:47 PM 45.2173 -73.7104 68° East 484 557 33,000  Level FlightAware ADS-B
Sat 09:28:50 PM 45.2200 -73.7010 67° East 485 558 33,000  Level FlightAware ADS-B
Sat 09:29:25 PM 45.2490 -73.5990 68° East 485 558 33,000  Level FlightAware ADS-B
Sat 09:29:55 PM 45.2740 -73.5090 68° East 484 557 33,000  Level FlightAware ADS-B
Sat 09:30:25 PM 45.3000 -73.4190 67° East 484 557 33,000  Level FlightAware ADS-B
Sat 09:31:01 PM 45.3290 -73.3150 68° East 483 556 33,000  Level FlightAware ADS-B
Sat 09:31:36 PM 45.3590 -73.2110 68° East 481 554 33,000  Level FlightAware ADS-B
Sat 09:32:05 PM 45.3820 -73.1290 68° East 476 548 33,000  Level FlightAware ADS-B
Sat 09:32:43 PM 45.4130 -73.0180 69° East 466 536 33,000  Level FlightAware ADS-B
Sat 09:33:15 PM 45.4380 -72.9260 68° East 463 533 33,000  Level FlightAware ADS-B
Sat 09:33:51 PM 45.4660 -72.8260 68° East 459 528 33,000  Level FlightAware ADS-B
Sat 09:34:21 PM 45.4890 -72.7430 68° East 457 526 33,000  Level FlightAware ADS-B
Sat 09:34:57 PM 45.5170 -72.6410 68° East 455 524 33,000  Level FlightAware ADS-B
Sat 09:35:33 PM 45.5440 -72.5410 68° East 454 522 33,000  Level FlightAware ADS-B
Sat 09:36:13 PM 45.5740 -72.4300 68° East 454 522 33,000  Level FlightAware ADS-B
Sat 09:36:43 PM 45.5970 -72.3470 68° East 454 522 33,000  Level FlightAware ADS-B
Sat 09:36:46 PM 45.4139 -73.0132 69° East 466 536 33,000  Level FlightAware ADS-B
Sat 09:37:19 PM 45.6240 -72.2470 68° East 454 522 33,000  Level FlightAware ADS-B
Sat 09:37:49 PM 45.6460 -72.1630 68° East 455 524 33,000  Level FlightAware ADS-B
Sat 09:38:19 PM 45.6690 -72.0780 69° East 455 524 33,000  Level FlightAware ADS-B
Sat 09:39:03 PM 45.7020 -71.9560 68° East 455 524 33,000  Level FlightAware ADS-B
Sat 09:40:11 PM 45.7517 -71.7668 69° East 455 524 33,000  Level FlightAware ADS-B
Sat 09:40:45 PM 45.7770 -71.6714 70° East 454 522 33,000  Level FlightAware ADS-B
Sat 09:40:46 PM 45.7780 -71.6670 69° East 455 524 33,000  Level FlightAware ADS-B
Sat 09:41:15 PM 45.7993 -71.5859 69° East 455 524 33,000  Level FlightAware ADS-B
Sat 09:41:48 PM 45.8228 -71.4961 70° East 456 525 33,000  Level FlightAware ADS-B
Sat 09:42:18 PM 45.8454 -71.4082 70° East 459 528 33,000  Level FlightAware ADS-B
Sat 09:42:48 PM 45.8679 -71.3213 70° East 462 532 33,000  Level FlightAware ADS-B
Sat 09:43:23 PM 45.8907 -71.2326 70° East 465 535 33,000  Level FlightAware ADS-B
Sat 09:43:54 PM 45.9167 -71.1323 70° East 468 539 33,000  Level FlightAware ADS-B
Sat 09:44:26 PM 45.9409 -71.0374 70° East 470 541 33,000  Level FlightAware ADS-B
Sat 09:45:06 PM 45.9702 -70.9213 70° East 470 541 33,000  Level FlightAware ADS-B
Sat 09:45:39 PM 45.9918 -70.8359 70° East 470 541 33,000  Level FlightAware ADS-B
Sat 09:46:19 PM 46.0245 -70.7073 70° East 470 541 33,000  Level FlightAware ADS-B
Sat 09:46:51 PM 46.0461 -70.6217 70° East 470 541 33,000  Level FlightAware ADS-B
Sat 09:47:22 PM 46.0703 -70.5250 70° East 468 539 33,000  Level FlightAware ADS-B
Sat 09:48:05 PM 46.1021 -70.3959 71° East 466 536 33,000  Level FlightAware ADS-B
Sat 09:48:43 PM 46.1273 -70.2935 71° East 464 534 33,000  Level FlightAware ADS-B
Sat 09:49:18 PM 46.1546 -70.1824 71° East 464 534 33,000  Level FlightAware ADS-B
Sat 09:49:48 PM 46.1750 -70.0993 71° East 463 533 33,000  Level FlightAware ADS-B
Sat 09:50:18 PM 46.1968 -70.0098 71° East 463 533 33,000  Level FlightAware ADS-B
Sat 09:50:54 PM 46.2214 -69.9091 71° East 463 533 33,000  Level FlightAware ADS-B
Sat 09:51:24 PM 46.2430 -69.8188 71° East 463 533 33,000  Level FlightAware ADS-B
Sat 09:51:56 PM 46.2660 -69.7230 71° East 465 535 33,000  Level FlightAware ADS-B
Sat 09:52:36 PM 46.2931 -69.6099 71° East 466 536 33,000  Level FlightAware ADS-B
Sat 09:53:09 PM 46.3168 -69.5105 71° East 467 537 33,000  Level FlightAware ADS-B
Sat 09:53:39 PM 46.3376 -69.4224 71° East 469 540 33,000  Level FlightAware ADS-B
Sat 09:54:22 PM 46.3680 -69.2942 71° East 471 542 33,000  Level FlightAware ADS-B
Sat 09:55:02 PM 46.3960 -69.1749 71° East 472 543 33,000  Level FlightAware ADS-B
Sat 09:55:32 PM 46.4162 -69.0886 72° East 473 544 33,000  Level FlightAware ADS-B
Sat 09:56:12 PM 46.4450 -68.9634 72° East 476 548 33,000  Level FlightAware ADS-B
Sat 09:56:42 PM 46.4660 -68.8729 72° East 477 549 33,000  Level FlightAware ADS-B
Sat 09:57:20 PM 46.4917 -68.7615 72° East 478 550 33,000  Level FlightAware ADS-B
Sat 09:57:50 PM 46.5127 -68.6694 72° East 477 549 33,000  Level FlightAware ADS-B
Sat 09:58:20 PM 46.5343 -68.5739 72° East 477 549 33,000  Level FlightAware ADS-B
Sat 09:58:51 PM 46.5554 -68.4815 72° East 478 550 33,000  Level FlightAware ADS-B
Sat 09:59:21 PM 46.5758 -68.3909 72° East 479 551 33,000  Level FlightAware ADS-B
Sat 09:59:53 PM 46.5965 -68.2982 72° East 478 550 33,000  Level FlightAware ADS-B
Sat 10:00:27 PM 46.6208 -68.1897 72° East 477 549 33,000  Level FlightAware ADS-B
Sat 10:01:07 PM 46.6479 -68.0673 72° East 477 549 33,000  Level FlightAware ADS-B
Sat 10:01:37 PM 46.6679 -67.9772 72° East 476 548 33,000  Level FlightAware ADS-B
Sat 10:02:15 PM 46.6934 -67.8610 72° East 476 548 33,000  Level FlightAware ADS-B
Sat 10:02:46 PM 46.7146 -67.7647 73° East 475 547 33,000  Level FlightAware ADS-B
Sat 10:03:34 PM 46.7333 -67.6167 73° East 470 541 33,000  Level Moncton Center
Sat 10:04:34 PM 46.7667 -67.4333 75° East 470 541 33,000  Level Moncton Center
Sat 10:05:34 PM 46.8167 -67.2667 66° East 470 541 33,000 450 Level Moncton Center
Sat 10:06:34 PM 46.8500 -67.0667 76° East 470 541 33,900 1,000 Climbing Moncton Center
Sat 10:07:34 PM 46.9000 -66.9000 66° East 470 541 35,000 550 Climbing Moncton Center
Sat 10:08:34 PM 46.9333 -66.7333 74° East 470 541 35,000  Level Moncton Center
Sat 10:09:34 PM 46.9833 -66.5333 70° East 470 541 35,000  Level Moncton Center
Sat 10:10:34 PM 47.0167 -66.3667 74° East 470 541 35,000  Level Moncton Center
Sat 10:11:34 PM 47.0500 -66.1667 76° East 470 541 35,000  Level Moncton Center
Sat 10:12:34 PM 47.0833 -66.0000 74° East 470 541 35,000  Level Moncton Center
Sat 10:13:34 PM 47.1167 -65.8000 76° East 470 541 35,000  Level Moncton Center
Sat 10:14:34 PM 47.1667 -65.6333 66° East 460 529 35,000  Level Moncton Center
Sat 10:15:34 PM 47.2167 -65.4500 68° East 460 529 35,000  Level Moncton Center
Sat 10:16:34 PM 47.2500 -65.2667 75° East 460 529 35,000  Level Moncton Center
Sat 10:17:34 PM 47.2833 -65.0833 75° East 460 529 35,000  Level Moncton Center
Sat 10:18:34 PM 47.3167 -64.8833 76° East 460 529 35,000  Level Moncton Center
Sat 10:19:34 PM 47.3500 -64.7167 73° East 460 529 35,000  Level Moncton Center
Sat 10:20:34 PM 47.4000 -64.5167 70° East 460 529 35,000  Level Moncton Center
Sat 10:21:34 PM 47.4333 -64.3500 73° East 460 529 35,000  Level Moncton Center
Sat 10:22:34 PM 47.4667 -64.1667 75° East 460 529 35,000  Level Moncton Center
Sat 10:23:34 PM 47.5000 -63.9833 75° East 460 529 35,000  Level Moncton Center
Sat 10:24:34 PM 47.5333 -63.8000 75° East 460 529 35,000  Level Moncton Center
Sat 10:25:34 PM 47.5667 -63.6333 73° East 460 529 35,000  Level Moncton Center
Sat 10:26:34 PM 47.6000 -63.4333 76° East 460 529 35,000  Level Moncton Center
Sat 10:27:34 PM 47.6500 -63.2500 68° East 470 541 35,000  Level Moncton Center
Sat 10:28:34 PM 47.6833 -63.0500 76° East 470 541 35,000  Level Moncton Center
Sat 10:29:34 PM 47.7000 -62.8833 81° East 470 541 35,000  Level Moncton Center
Sat 10:30:34 PM 47.7333 -62.6833 76° East 470 541 35,000  Level Moncton Center
Sat 10:31:34 PM 47.7667 -62.5000 75° East 470 541 35,000  Level Moncton Center
Sat 10:32:34 PM 47.8167 -62.3000 70° East 470 541 35,000  Level Moncton Center
Sat 10:33:34 PM 47.8500 -62.1333 73° East 470 541 35,000  Level Moncton Center
Sat 10:34:34 PM 47.8667 -61.9333 83° East 470 541 35,000  Level Moncton Center
Sat 10:35:34 PM 47.9000 -61.7500 75° East 470 541 35,000  Level Moncton Center
Sat 10:36:34 PM 47.9333 -61.5500 76° East 470 541 35,000  Level Moncton Center
Sat 10:37:34 PM 47.9667 -61.3667 75° East 470 541 35,000  Level Moncton Center
Sat 10:38:34 PM 47.9833 -61.1667 83° East 470 541 35,000  Level Moncton Center
Sat 10:39:34 PM 48.0333 -60.9667 69° East 470 541 35,000  Level Moncton Center
Sat 10:40:34 PM 48.0667 -60.7833 75° East 470 541 35,000  Level Moncton Center
Sat 10:41:34 PM 48.0833 -60.5833 83° East 470 541 35,000  Level Moncton Center
Sat 10:42:34 PM 48.1167 -60.4167 73° East 470 541 35,000  Level Moncton Center
Sat 10:43:34 PM 48.1500 -60.2000 77° East 480 552 35,000  Level Moncton Center
Sat 10:44:36 PM 48.1833 -60.0000 76° East 480 552 35,000  Level Gander Center
Sat 10:45:36 PM 48.2000 -59.8000 83° East 480 552 35,000  Level Gander Center
Sat 10:46:34 PM 48.2333 -59.6167 75° East 470 541 35,000  Level Moncton Center
Sat 10:47:34 PM 48.2667 -59.4333 75° East 470 541 35,000  Level Moncton Center
Sat 10:48:34 PM 48.2833 -59.2667 81° East 470 541 35,000  Level Moncton Center
Sat 10:49:34 PM 48.3333 -59.0500 71° East 470 541 35,000  Level Moncton Center
Sat 10:50:34 PM 48.3500 -58.8500 83° East 470 541 35,000  Level Moncton Center
Sat 10:51:34 PM 48.3833 -58.6667 75° East 480 552 35,000  Level Moncton Center
Sat 10:52:34 PM 48.4000 -58.4667 83° East 480 552 35,000  Level Moncton Center
Sat 10:53:34 PM 48.4333 -58.2667 76° East 470 541 35,000  Level Moncton Center
Sat 10:54:34 PM 48.4667 -58.0500 77° East 470 541 35,000  Level Moncton Center
Sat 10:55:34 PM 48.4833 -57.8833 81° East 470 541 35,000  Level Moncton Center
Sat 10:56:34 PM 48.5167 -57.7000 75° East 470 541 35,000  Level Moncton Center
Sat 10:57:34 PM 48.5333 -57.4833 83° East 480 552 35,000  Level Moncton Center
Sat 10:58:34 PM 48.5667 -57.3000 75° East 480 552 35,000  Level Moncton Center
Sat 10:59:34 PM 48.5833 -57.1000 83° East 470 541 35,000  Level Moncton Center
Sat 11:00:34 PM 48.6167 -56.9000 76° East 470 541 35,000  Level Moncton Center
Sat 11:01:34 PM 48.6333 -56.6833 83° East 470 541 35,000  Level Moncton Center
Sat 11:02:34 PM 48.6500 -56.5000 82° East 470 541 35,000 350 Level Moncton Center
Sat 11:03:34 PM 48.6833 -56.3167 75° East 470 541 35,700 492 Climbing Moncton Center
Sat 11:04:36 PM 48.7500 -56.1333 61° Northeast 470 541 36,000 148 Climbing Gander Center
Sat 11:05:36 PM 48.7833 -55.9333 76° East 470 541 36,000  Level Gander Center
Sat 11:06:36 PM 48.8333 -55.7500 67° East 470 541 36,000  Level Gander Center
Sat 11:07:36 PM 48.8667 -55.5667 74° East 460 529 36,000  Level Gander Center
Sat 11:08:36 PM 48.9167 -55.3833 67° East 460 529 36,000  Level Gander Center
Sat 11:09:36 PM 48.9500 -55.2000 74° East 460 529 36,000  Level Gander Center
Sat 11:10:36 PM 49.0000 -55.0167 67° East 460 529 36,000  Level Gander Center
Sat 11:11:36 PM 49.0333 -54.8333 74° East 460 529 36,000  Level Gander Center
Sat 11:13:20 PM 49.1000 -54.5167 72° East 460 529 36,000  Level Gander Center
Sat 11:14:20 PM 49.1333 -54.3333 74° East 460 529 36,000  Level Gander Center
Sat 11:15:20 PM 49.1833 -54.1333 69° East 460 529 36,000  Level Gander Center
Sat 11:16:20 PM 49.2167 -53.9500 74° East 460 529 36,000  Level Gander Center
Sat 11:17:20 PM 49.2667 -53.7667 67° East 460 529 36,000  Level Gander Center
Sat 11:18:20 PM 49.2833 -53.5833 82° East 460 529 36,000  Level Gander Center
Sat 11:19:20 PM 49.3500 -53.4000 61° Northeast 450 518 36,000  Level Gander Center
Sat 11:20:20 PM 49.3833 -53.2167 74° East 450 518 36,000  Level Gander Center
Sat 11:21:20 PM 49.4000 -53.0500 81° East 450 518 36,000  Level Gander Center
Sat 11:22:20 PM 49.4333 -52.8667 74° East 450 518 36,000  Level Gander Center
Sat 11:23:20 PM 49.4833 -52.6833 67° East 450 518 36,000  Level Gander Center
Sat 11:24:20 PM 49.5167 -52.4833 76° East 450 518 36,000  Level Gander Center
Sat 11:25:20 PM 49.5500 -52.3000 74° East 450 518 36,000  Level Gander Center
Sat 11:26:20 PM 49.5833 -52.1167 74° East 450 518 36,000  Level Gander Center
Sat 11:27:20 PM 49.6167 -51.9167 76° East 450 518 36,000  Level Gander Center
Sat 11:28:20 PM 49.6500 -51.7667 71° East 440 506 36,000  Level Gander Center
Sat 11:29:20 PM 49.6833 -51.5667 75° East 440 506 36,000  Level Gander Center
Sat 11:30:20 PM 49.7333 -51.3833 67° East 440 506 36,000  Level Gander Center
Sat 11:31:20 PM 49.7667 -51.2000 74° East 450 518 36,000  Level Gander Center
Sat 11:32:20 PM 49.8000 -51.0333 73° East 450 518 36,000  Level Gander Center
Sat 11:33:20 PM 49.8333 -50.8167 77° East 450 518 36,000  Level Gander Center
Sat 11:34:20 PM 49.8667 -50.6500 73° East 450 518 36,000  Level Gander Center
Sat 11:35:20 PM 49.9000 -50.4667 74° East 440 506 36,000  Level Gander Center
Sat 11:36:20 PM 49.9333 -50.2667 75° East 440 506 36,000  Level Gander Center
Sat 11:37:20 PM 49.9667 -50.1000 73° East 440 506 36,000  Level Gander Center
Sat 11:38:20 PM 50.0000 -49.9167 74° East 440 506 36,000  Level Gander Center
Sat 11:39:20 PM 50.0500 -49.7500 65° Northeast 440 506 36,000  Level Gander Center
Sat 11:40:20 PM 50.0667 -49.5500 83° East 440 506 36,000  Level Gander Center
Sat 11:41:20 PM 50.1167 -49.3833 65° Northeast 440 506 36,000  Level Gander Center
Sat 11:42:20 PM 50.1667 -49.1833 69° East 440 506 36,000  Level Gander Center
Sat 11:43:20 PM 50.2000 -49.0167 73° East 440 506 36,000  Level Gander Center
Sat 11:44:20 PM 50.2500 -48.8500 65° Northeast 440 506 36,000  Level Gander Center
Sat 11:45:20 PM 50.3000 -48.6833 65° Northeast 440 506 36,000  Level Gander Center
Sat 11:46:20 PM 50.3333 -48.4833 75° East 430 495 36,000  Level Gander Center
Sat 11:47:00 PM 50.0000 -50.0000 69° East 456 525 36,000  Level ETMS Enhanced Traffic Management System
Sat 11:47:20 PM 50.3833 -48.2833 69° East 440 506 36,000  Level Gander Center
Sat 11:48:20 PM 50.4167 -48.1167 69° East 440 506 36,000  Level Gander Center
Sat 11:49:20 PM 50.4667 -47.9667 62° Northeast 440 506 36,000  Level Gander Center
Sun 12:31:00 AM 52.0000 -40.0000 77° East 472 543 36,000  Level ETMS Enhanced Traffic Management System
Sun 01:18:00 AM 53.0000 -30.0000 86° East 491 565 36,000  Level ETMS Enhanced Traffic Management System
Sun 01:19:00 AM 53.0171 -29.5763 86° East  Level FlightAware Approximate
Sun 01:20:00 AM 53.0251 -29.3615 86° East  Level FlightAware Approximate
Sun 01:21:00 AM 53.0328 -29.1467 87° East  Level FlightAware Approximate
Sun 01:22:00 AM 53.0401 -28.9317 87° East  Level FlightAware Approximate
Sun 01:23:00 AM 53.0470 -28.7167 87° East  Level FlightAware Approximate
Sun 01:24:00 AM 53.0624 -28.1849 87° East 491 565 36,000  Level FlightAware Transoceanic
Sun 01:25:00 AM 53.0683 -27.9577 88° East 491 565 36,000  Level FlightAware Transoceanic
Sun 01:26:00 AM 53.0737 -27.7304 88° East 491 565 36,000  Level FlightAware Transoceanic
Sun 01:27:00 AM 53.0787 -27.5030 88° East 491 565 36,000  Level FlightAware Transoceanic
Sun 01:28:00 AM 53.0832 -27.2757 88° East 491 565 36,000  Level FlightAware Transoceanic
Sun 01:29:00 AM 53.0873 -27.0482 88° East 491 565 36,000  Level FlightAware Transoceanic
Sun 01:30:00 AM 53.0910 -26.8207 89° East 491 565 36,000  Level FlightAware Transoceanic
Sun 01:31:00 AM 53.0943 -26.5932 89° East 491 565 36,000  Level FlightAware Transoceanic
Sun 01:32:00 AM 53.0971 -26.3657 89° East 491 565 36,000  Level FlightAware Transoceanic
Sun 01:33:00 AM 53.0995 -26.1381 89° East 491 565 36,000  Level FlightAware Transoceanic
Sun 01:34:00 AM 53.1015 -25.9105 89° East 491 565 36,000  Level FlightAware Transoceanic
Sun 01:35:00 AM 53.1030 -25.6829 89° East 491 565 36,000  Level FlightAware Transoceanic
Sun 01:36:00 AM 53.1041 -25.4553 90° East 491 565 36,000  Level FlightAware Transoceanic
Sun 01:37:00 AM 53.1047 -25.2276 90° East 491 565 36,000  Level FlightAware Transoceanic
Sun 01:38:00 AM 53.1049 -25.0000 90° East 491 565 36,000  Level FlightAware Transoceanic
Sun 01:39:00 AM 53.1047 -24.7724 90° East 491 565 36,000  Level FlightAware Transoceanic
Sun 01:40:00 AM 53.1041 -24.5447 90° East 491 565 36,000  Level FlightAware Transoceanic
Sun 01:41:00 AM 53.1030 -24.3171 91° East 491 565 36,000  Level FlightAware Transoceanic
Sun 01:42:00 AM 53.1015 -24.0895 91° East 491 565 36,000  Level FlightAware Transoceanic
Sun 01:43:00 AM 53.0995 -23.8619 91° East 491 565 36,000  Level FlightAware Transoceanic
Sun 01:44:00 AM 53.0971 -23.6343 91° East 491 565 36,000  Level FlightAware Transoceanic
Sun 01:45:00 AM 53.0943 -23.4068 91° East 491 565 36,000  Level FlightAware Transoceanic
Sun 01:46:00 AM 53.0910 -23.1793 91° East 491 565 36,000  Level FlightAware Transoceanic
Sun 01:47:00 AM 53.0873 -22.9518 92° East 491 565 36,000  Level FlightAware Transoceanic
Sun 01:48:00 AM 53.0832 -22.7243 92° East 491 565 36,000  Level FlightAware Transoceanic
Sun 01:49:00 AM 53.0787 -22.4970 92° East 491 565 36,000  Level FlightAware Transoceanic
Sun 01:50:00 AM 53.0737 -22.2696 92° East 491 565 36,000  Level FlightAware Transoceanic
Sun 01:51:00 AM 53.0683 -22.0423 92° East 491 565 36,000  Level FlightAware Transoceanic
Sun 01:52:00 AM 53.0624 -21.8151 93° East 491 565 36,000  Level FlightAware Transoceanic
Sun 01:53:00 AM 53.0561 -21.5879 93° East 491 565 36,000  Level FlightAware Transoceanic
Sun 01:54:00 AM 53.0494 -21.3609 93° East 491 565 36,000  Level FlightAware Transoceanic
Sun 01:55:00 AM 53.0422 -21.1338 93° East 491 565 36,000  Level FlightAware Transoceanic
Sun 01:56:00 AM 53.0347 -20.9069 93° East 491 565 36,000  Level FlightAware Transoceanic
Sun 01:57:00 AM 53.0266 -20.6800 93° East 491 565 36,000  Level FlightAware Transoceanic
Sun 01:58:00 AM 53.0182 -20.4533 94° East 491 565 36,000  Level FlightAware Transoceanic
Sun 01:59:00 AM 53.0093 -20.2266 94° East 491 565 36,000 30 Level FlightAware Transoceanic
Sun 02:00:00 AM 53.0005 -20.0120 94° East  Level FlightAware Approximate
Sun 02:01:00 AM 52.9913 -19.7974 94° East  Level FlightAware Approximate
Sun 02:02:00 AM 52.9962 -19.8090 92° East  Level FlightAware Approximate
Sun 02:03:00 AM 52.9916 -19.5941 92° East  Level FlightAware Approximate
Sun 02:04:00 AM 52.9867 -19.3792 92° East  Level FlightAware Approximate
Sun 02:05:00 AM 52.9813 -19.1644 92° East  Level FlightAware Approximate
Sun 02:06:00 AM 52.9755 -18.9496 92° East  Level FlightAware Approximate
Sun 02:07:00 AM 52.9694 -18.7349 93° East  Level FlightAware Approximate
Sun 02:08:00 AM 52.9628 -18.5202 93° East  Level FlightAware Approximate
Sun 02:09:00 AM 52.9559 -18.3056 93° East  Level FlightAware Approximate
Sun 02:10:00 AM 52.9486 -18.0911 93° East  Level FlightAware Approximate
Sun 02:11:00 AM 52.9409 -17.8767 93° East  Level FlightAware Approximate
Sun 02:12:00 AM 52.9328 -17.6623 93° East  Level FlightAware Approximate
Sun 02:13:00 AM 52.9244 -17.4480 94° East  Level FlightAware Approximate
Sun 02:14:00 AM 52.9155 -17.2338 94° East  Level FlightAware Approximate
Sun 02:15:00 AM 52.9063 -17.0197 94° East  Level FlightAware Approximate
Sun 02:16:00 AM 52.8967 -16.8057 94° East  Level FlightAware Approximate
Sun 02:17:00 AM 52.8867 -16.5918 94° East  Level FlightAware Approximate
Sun 02:18:00 AM 52.8763 -16.3780 95° East  Level FlightAware Approximate
Sun 02:19:00 AM 52.8655 -16.1643 95° East  Level FlightAware Approximate
Sun 02:20:00 AM 52.8544 -15.9507 95° East  Level FlightAware Approximate
Sun 02:21:00 AM 52.8428 -15.7372 95° East  Level FlightAware Approximate
Sun 02:22:00 AM 52.8309 -15.5238 95° East  Level FlightAware Approximate
Sun 02:23:00 AM 52.8186 -15.3105 95° East  Level FlightAware Approximate
Sun 02:24:00 AM 52.8059 -15.0974 96° East  Level FlightAware Approximate
Sun 02:25:00 AM 52.7931 -14.8844 96° East  Level FlightAware Approximate
Sun 02:26:00 AM 52.7801 -14.6714 96° East  Level FlightAware Approximate
Sun 02:27:00 AM 52.7667 -14.4586 96° East  Level FlightAware Approximate
Sun 02:28:00 AM 52.7528 -14.2459 96° East  Level FlightAware Approximate
Sun 02:29:00 AM 52.7387 -14.0334 96° East  Level FlightAware Approximate
Sun 02:30:00 AM 52.7241 -13.8209 96° East  Level FlightAware Approximate
Sun 02:31:00 AM 52.7092 -13.6087 97° East  Level FlightAware Approximate
Sun 02:31:49 AM 52.8159 -12.3096 98° East 498 573 37,000  Level FlightAware ADS-B (KHQM)
Sun 02:32:00 AM 52.6939 -13.3966 97° East  Level FlightAware Approximate
Sun 02:32:36 AM 52.8010 -12.1305 98° East 497 572 37,000  Level FlightAware ADS-B (KHQM)
Sun 02:33:07 AM 52.7915 -12.0160 98° East 496 571 37,000  Level FlightAware ADS-B (KHQM)
Sun 02:33:44 AM 52.7802 -11.8793 98° East 494 568 37,000  Level FlightAware ADS-B (KHQM)
Sun 02:34:16 AM 52.7720 -11.7820 98° East 491 565 37,000  Level FlightAware ADS-B (KHQM)
Sun 02:34:47 AM 52.7600 -11.6436 98° East 490 564 37,000  Level FlightAware ADS-B (KHQM)
Sun 02:35:18 AM 52.7502 -11.5315 98° East 490 564 37,000  Level FlightAware ADS-B (KHQM)
Sun 02:35:53 AM 52.7388 -11.4038 98° East 490 564 37,000  Level FlightAware ADS-B (KHQM)
Sun 02:36:23 AM 52.7294 -11.2997 99° East 491 565 37,000  Level FlightAware ADS-B (KHQM)
Sun 02:37:08 AM 52.7139 -11.1295 99° East 491 565 37,000  Level FlightAware ADS-B (KHQM)
Sun 02:37:39 AM 52.7035 -11.0145 98° East 490 564 37,000  Level FlightAware ADS-B (KHQM)
Sun 02:38:22 AM 52.6889 -10.8560 99° East 491 565 37,000  Level FlightAware ADS-B (KHQM)
Sun 02:38:52 AM 52.6781 -10.7408 99° East 492 566 37,000  Level FlightAware ADS-B (KHQM)
Sun 02:39:22 AM 52.6676 -10.6287 99° East 492 566 37,000  Level FlightAware ADS-B (KHQM)
Sun 02:39:52 AM 52.6573 -10.5204 99° East 492 566 37,000  Level FlightAware ADS-B (KHQM)
Sun 02:40:23 AM 52.6462 -10.4068 99° East 492 566 37,000  Level FlightAware ADS-B (KHQM)
Sun 02:41:03 AM 52.6314 -10.2564 99° East 492 566 37,000  Level FlightAware ADS-B (KHQM)
Sun 02:41:34 AM 52.6202 -10.1430 99° East 491 565 37,000  Level FlightAware ADS-B (KHQM)
Sun 02:42:04 AM 52.6096 -10.0346 99° East 493 567 37,000  Level FlightAware ADS-B (KHQM)
Sun 02:42:43 AM 52.5948 -9.8880 100° East 493 567 37,000  Level FlightAware ADS-B (KHQM)
Sun 02:43:14 AM 52.5838 -9.7797 100° East 494 568 37,000  Level FlightAware ADS-B (KHQM)
Sun 02:43:44 AM 52.5721 -9.6668 100° East 494 568 37,000  Level FlightAware ADS-B (KHQM)
Sun 02:44:31 AM 52.5545 -9.4955 100° East 496 571 37,000  Level FlightAware ADS-B (KHQM)
Sun 02:45:01 AM 52.5423 -9.3792 100° East 496 571 37,000  Level FlightAware ADS-B (KHQM)
Sun 02:45:36 AM 52.5287 -9.2512 100° East 497 572 37,000  Level FlightAware ADS-B (EGAA / BFS)
Sun 02:46:14 AM 52.5138 -9.1117 100° East 498 573 37,000  Level FlightAware ADS-B (KHQM)
Sun 02:46:52 AM 52.4999 -8.9827 100° East 498 573 37,000  Level FlightAware ADS-B
Sun 02:47:25 AM 52.4853 -8.8493 100° East 497 572 37,000  Level FlightAware ADS-B (KHQM)
Sun 02:47:59 AM 52.4712 -8.7216 100° East 496 571 37,000  Level FlightAware ADS-B (EGAA / BFS)
Sun 02:48:33 AM 52.4570 -8.5939 101° East 495 570 37,000  Level FlightAware ADS-B
Sun 02:49:11 AM 52.4415 -8.4562 100° East 495 570 37,000  Level FlightAware ADS-B (KHQM)
Sun 02:49:19 AM 52.4383 -8.4260 101° East 495 570 37,000  Level FlightAware ADS-B
Sun 02:49:52 AM 52.4242 -8.3039 101° East 496 571 37,000  Level FlightAware ADS-B (KHQM)
Sun 02:50:25 AM 52.4135 -8.2098 101° East 496 571 37,000  Level FlightAware ADS-B (EGAA / BFS)
Sun 02:50:56 AM 52.3972 -8.0703 101° East 496 571 37,000  Level FlightAware ADS-B (KHQM)
Sun 02:51:26 AM 52.3852 -7.9673 101° East 496 571 37,000  Level FlightAware ADS-B (KHQM)
Sun 02:52:07 AM 52.3904 -8.0107 101° East 496 571 37,000  Level FlightAware ADS-B
Sun 02:52:41 AM 52.3458 -7.6562 101° East 494 568 37,000  Level FlightAware UK
Sun 02:53:41 AM 52.3190 -7.4377 101° East 494 568 37,000 -467 Level FlightAware UK
Sun 02:54:11 AM 52.3053 -7.3284 102° East 502 578 36,300 -1,400 Descending FlightAware UK
Sun 02:54:41 AM 52.2915 -7.2186 102° East 494 568 35,600 -1,297 Descending FlightAware UK
Sun 02:54:48 AM 52.2966 -7.2299 101° East 493 567 35,500 -1,463 Descending FlightAware ADS-B
Sun 02:55:22 AM 52.2816 -7.1083 102° East 491 565 34,600 -1,360 Descending FlightAware ADS-B
Sun 02:56:03 AM 52.2724 -7.0352 102° East 488 562 33,800 -1,135 Descending FlightAware ADS-B (EGAA / BFS)
Sun 02:56:36 AM 52.2480 -6.8417 102° East 487 560 33,200 -794 Descending FlightAware ADS-B
Sun 02:57:11 AM 52.2221 -6.6785 102° East 486 559 32,900 -293 Descending FlightAware UK
Sun 02:57:17 AM 52.2290 -6.6943 102° East 485 558 33,000 130 Climbing FlightAware ADS-B
Sun 02:57:57 AM 52.2093 -6.5399 102° East 492 566 33,000  Level FlightAware ADS-B
Sun 02:58:07 AM 52.2048 -6.5060 102° East 488 562 33,000  Level FlightAware ADS-B (EGAA / BFS)
Sun 02:58:40 AM 52.1876 -6.3939 106° East 494 568 33,000  Level FlightAware ADS-B
Sun 02:59:11 AM 52.1575 -6.2492 106° East 494 568 33,000  Level FlightAware UK
Sun 02:59:15 AM 52.1645 -6.2603 106° East 493 567 33,000  Level FlightAware ADS-B
Sun 02:59:59 AM 52.1372 -6.1026 106° East 491 565 33,000  Level FlightAware ADS-B (EGCW)
Sun 03:00:39 AM 52.1145 -5.9682 106° East 491 565 33,000  Level FlightAware ADS-B (EGCW)
Sun 03:01:19 AM 52.0900 -5.8236 106° East 491 565 33,000  Level FlightAware ADS-B (EGCW)
Sun 03:01:49 AM 52.0723 -5.7208 106° East 491 565 33,000  Level FlightAware ADS-B (EGCW)
Sun 03:02:21 AM 52.0520 -5.6023 106° East 493 567 33,000  Level FlightAware ADS-B (EGCW)
Sun 03:02:53 AM 52.0206 -5.4639 106° East 498 573 33,000  Level FlightAware UK
Sun 03:02:58 AM 52.0299 -5.4734 106° East 497 572 33,000  Level FlightAware ADS-B (EGCW)
Sun 03:03:38 AM 52.0035 -5.3225 106° East 490 564 33,000  Level FlightAware ADS-B (EGCW)
Sun 03:04:09 AM 51.9852 -5.2204 106° East 486 559 33,000  Level FlightAware ADS-B (EGCW)
Sun 03:04:39 AM 51.9658 -5.1117 106° East 483 556 33,000  Level FlightAware ADS-B (EGCW)
Sun 03:04:48 AM 51.9604 -5.0805 106° East 482 555 33,000  Level FlightAware ADS-B (EGCW)
Sun 03:05:23 AM 51.9263 -4.9395 106° East 482 555 33,000  Level FlightAware UK
Sun 03:05:29 AM 51.9344 -4.9366 106° East 483 556 33,000  Level FlightAware ADS-B (EGCW)
Sun 03:06:01 AM 51.9147 -4.8271 106° East 485 558 33,000  Level FlightAware ADS-B (EGCW)
Sun 03:06:11 AM 51.9082 -4.7909 107° East 486 559 33,000  Level FlightAware ADS-B (EGCW)
Sun 03:06:26 AM 51.8987 -4.7387 106° East 485 558 33,000  Level FlightAware ADS-B (LKVR)
Sun 03:06:45 AM 51.8871 -4.6752 106° East 488 562 33,000  Level FlightAware ADS-B (EGDX / DGX)
Sun 03:07:01 AM 51.8762 -4.6165 106° East 487 560 33,000  Level FlightAware ADS-B (EGDX / DGX)
Sun 03:07:06 AM 51.8732 -4.5997 106° East 487 560 33,000  Level FlightAware ADS-B (KSCH)
Sun 03:07:41 AM 51.8515 -4.4820 107° East 489 563 33,000  Level FlightAware ADS-B (EGCW)
Sun 03:08:03 AM 51.8362 -4.3988 106° East 487 560 33,000  Level FlightAware ADS-B (EGHH / BOH)
Sun 03:08:26 AM 51.8251 -4.3381 107° East 489 563 33,000  Level FlightAware ADS-B (EGHS)
Sun 03:08:38 AM 51.8144 -4.2815 107° East 489 563 33,000  Level FlightAware ADS-B (EGDX / DGX)
Sun 03:08:48 AM 51.8071 -4.2424 106° East 487 560 33,000  Level FlightAware ADS-B (EGHH / BOH)
Sun 03:08:54 AM 51.8033 -4.2222 106° East 487 560 33,000 -1,000 Level FlightAware ADS-B (EGHH / BOH)
Sun 03:09:24 AM 51.7837 -4.1185 107° East 494 568 32,400 -1,333 Descending FlightAware ADS-B (EGCW)
Sun 03:09:39 AM 51.7738 -4.0660 108° East 485 558 32,000 -1,448 Descending FlightAware ADS-B (KSCH)
Sun 03:09:53 AM 51.7643 -4.0179 106° East 476 548 31,700 -1,263 Descending FlightAware ADS-B (LKVR)
Sun 03:09:58 AM 51.7609 -3.9996 106° East 474 545 31,600 -1,565 Descending FlightAware ADS-B (KSCH)
Sun 03:10:16 AM 51.7497 -3.9413 106° East 461 531 31,100 -1,800 Descending FlightAware ADS-B (KSCH)
Sun 03:10:28 AM 51.7420 -3.9005 106° East 459 528 30,700 -1,837 Descending FlightAware ADS-B (EGHH / BOH)
Sun 03:11:05 AM 51.7211 -3.7907 107° East 457 526 29,600 -1,962 Descending FlightAware ADS-B
Sun 03:11:20 AM 51.7096 -3.7293 107° East 451 519 29,000 -2,286 Descending FlightAware ADS-B (KSCH)
Sun 03:11:26 AM 51.7072 -3.7167 108° East 448 516 28,800 -1,800 Descending FlightAware ADS-B (EGHS)
Sun 03:11:40 AM 51.6979 -3.6700 108° East 441 507 28,400 -1,935 Descending FlightAware ADS-B
Sun 03:11:57 AM 51.6876 -3.6158 108° East 436 502 27,800 -2,087 Descending FlightAware ADS-B (KSCH)
Sun 03:12:03 AM 51.6840 -3.5973 107° East 437 503 27,600 -1,946 Descending FlightAware ADS-B (EGHH / BOH)
Sun 03:12:34 AM 51.6668 -3.5091 107° East 430 495 26,600 -2,211 Descending FlightAware ADS-B (EGDM)
Sun 03:12:41 AM 51.6634 -3.4909 108° East 427 491 26,200 -1,846 Descending FlightAware ADS-B (EGDX / DGX)
Sun 03:13:13 AM 51.6437 -3.3860 105° East 413 475 25,400 -1,622 Descending FlightAware ADS-B
Sun 03:13:18 AM 51.6421 -3.3771 105° East 410 472 25,200 -1,636 Descending FlightAware ADS-B
Sun 03:13:35 AM 51.6332 -3.3217 103° East 400 460 24,800 -1,171 Descending FlightAware ADS-B (EGDX / DGX)
Sun 03:13:59 AM 51.6239 -3.2557 102° East 385 443 24,400 -1,000 Descending FlightAware ADS-B (EGLF / FAB)
Sun 03:14:17 AM 51.6162 -3.2003 103° East 381 438 24,100 -1,200 Descending FlightAware ADS-B
Sun 03:14:29 AM 51.6121 -3.1696 101° East 374 430 23,800 -1,500 Descending FlightAware ADS-B (LKVR)
Sun 03:14:37 AM 51.6095 -3.1483 100° East 373 429 23,600 -1,200 Descending FlightAware ADS-B (LKVR)
Sun 03:14:44 AM 51.6074 -3.1324 101° East 374 430 23,500 -1,125 Descending FlightAware ADS-B (EGLF / FAB)
Sun 03:14:53 AM 51.6037 -3.1035 102° East 370 426 23,300 -1,500 Descending FlightAware ADS-B
Sun 03:15:00 AM 51.6012 -3.0853 102° East 367 422 23,100 -1,091 Descending FlightAware ADS-B (EGCW)
Sun 03:15:04 AM 51.5998 -3.0740 101° East 365 420 23,100 -1,333 Level FlightAware ADS-B (KSCH)
Sun 03:15:09 AM 51.5988 -3.0670 102° East 366 421 22,900 -2,250 Descending FlightAware ADS-B
Sun 03:15:12 AM 51.5970 -3.0523 101° East 362 417 22,800 -1,200 Descending FlightAware ADS-B (KSCH)
Sun 03:15:19 AM 51.5949 -3.0369 102° East 363 418 22,700 -947 Descending FlightAware ADS-B (EGCW)
Sun 03:15:31 AM 51.5908 -3.0042 102° East 361 415 22,500 -1,059 Descending FlightAware ADS-B (EGCW)
Sun 03:15:36 AM 51.5892 -2.9932 100° East 360 414 22,400 -1,333 Descending FlightAware ADS-B
Sun 03:15:40 AM 51.5873 -2.9781 102° East 360 414 22,300 -2,400 Descending FlightAware ADS-B
Sun 03:15:41 AM 51.5875 -2.9797 102° East 358 412 22,200 -1,286 Descending FlightAware ADS-B (EGHS)
Sun 03:15:54 AM 51.5832 -2.9469 102° East 355 409 22,000 -1,125 Descending FlightAware ADS-B (EGLF / FAB)
Sun 03:16:13 AM 51.5760 -2.8933 102° East 360 414 21,600 -1,385 Descending FlightAware ADS-B
Sun 03:16:20 AM 51.5738 -2.8767 101° East 347 399 21,400 -1,765 Descending FlightAware ADS-B
Sun 03:16:30 AM 51.5712 -2.8574 102° East 350 403 21,100 -1,200 Descending FlightAware ADS-B (EGLF / FAB)
Sun 03:16:35 AM 51.5695 -2.8448 103° East 350 403 21,100 -750 Level FlightAware ADS-B (EGDX / DGX)
Sun 03:16:46 AM 51.5648 -2.8108 103° East 351 404 20,900 -1,263 Descending FlightAware ADS-B (EGDX / DGX)
Sun 03:16:54 AM 51.5631 -2.7986 103° East 351 404 20,700 -1,333 Descending FlightAware ADS-B (EGLF / FAB)
Sun 03:17:04 AM 51.5585 -2.7651 101° East 348 400 20,500 -1,385 Descending FlightAware ADS-B (EGHH / BOH)
Sun 03:17:07 AM 51.5573 -2.7570 103° East 348 400 20,400 -1,333 Descending FlightAware ADS-B
Sun 03:17:22 AM 51.5523 -2.7203 103° East 346 398 20,100 -1,333 Descending FlightAware ADS-B (EGDM)
Sun 03:17:25 AM 51.5516 -2.7158 103° East 346 398 20,000 -1,200 Descending FlightAware ADS-B (EGCW)
Sun 03:17:37 AM 51.5470 -2.6820 101° East 342 394 19,800 -1,200 Descending FlightAware ADS-B (KSCH)
Sun 03:17:40 AM 51.5461 -2.6750 101° East 341 392 19,700 -1,714 Descending FlightAware ADS-B (LKVR)
Sun 03:17:44 AM 51.5448 -2.6655 103° East 346 398 19,600 -1,333 Descending FlightAware ADS-B
Sun 03:17:49 AM 51.5429 -2.6521 101° East 341 392 19,500 -1,059 Descending FlightAware ADS-B (EGHH / BOH)
Sun 03:18:01 AM 51.5391 -2.6245 101° East 339 390 19,300 -1,333 Descending FlightAware ADS-B (EGHH / BOH)
Sun 03:18:07 AM 51.5384 -2.6196 103° East 339 390 19,100 -1,385 Descending FlightAware ADS-B
Sun 03:18:14 AM 51.5344 -2.5910 103° East 339 390 19,000 -923 Descending FlightAware ADS-B
Sun 03:18:20 AM 51.5326 -2.5775 101° East 337 388 18,900 -1,333 Descending FlightAware ADS-B (LKVR)
Sun 03:18:23 AM 51.5314 -2.5691 102° East 337 388 18,800 -1,440 Descending FlightAware ADS-B
Sun 03:18:45 AM 51.5238 -2.5162 103° East 333 383 18,300 -1,273 Descending FlightAware ADS-B
Sun 03:18:56 AM 51.5201 -2.4889 101° East 330 380 18,100 -1,412 Descending FlightAware ADS-B (LKVR)
Sun 03:19:02 AM 51.5224 -2.5066 102° East 330 380 17,900 -1,636 Descending FlightAware ADS-B
Sun 03:19:07 AM 51.5164 -2.4637 102° East 330 380 17,800 -923 Descending FlightAware ADS-B (EGHA)
Sun 03:19:15 AM 51.5137 -2.4430 101° East 328 377 17,700 -1,600 Descending FlightAware ADS-B (LKVR)
Sun 03:19:22 AM 51.5115 -2.4269 103° East 330 380 17,400 -1,636 Descending FlightAware ADS-B
Sun 03:19:26 AM 51.5101 -2.4174 102° East 329 379 17,400 -500 Level FlightAware ADS-B (EGHH / BOH)
Sun 03:19:34 AM 51.5134 -2.4406 103° East 330 380 17,300 -1,125 Descending FlightAware ADS-B (EGDX / DGX)
Sun 03:19:42 AM 51.5046 -2.3795 102° East 330 380 17,100 -1,500 Descending FlightAware ADS-B
Sun 03:19:46 AM 51.5032 -2.3699 103° East 333 383 17,000 -1,200 Descending FlightAware ADS-B (EGDX / DGX)
Sun 03:19:52 AM 51.5015 -2.3585 103° East 329 379 16,900 -1,200 Descending FlightAware ADS-B (EGDX / DGX)
Sun 03:20:11 AM 51.4948 -2.3099 103° East 327 376 16,500 -1,364 Descending FlightAware ADS-B
Sun 03:20:14 AM 51.4941 -2.3061 103° East 328 377 16,400 -1,385 Descending FlightAware ADS-B
Sun 03:20:24 AM 51.4912 -2.2850 103° East 326 375 16,200 -1,200 Descending FlightAware ADS-B
Sun 03:20:29 AM 51.4890 -2.2699 103° East 327 376 16,100 -1,333 Descending FlightAware ADS-B (EGHI / SOU)
Sun 03:20:42 AM 51.4844 -2.2373 103° East 323 372 15,800 -1,286 Descending FlightAware ADS-B
Sun 03:20:43 AM 51.4840 -2.2349 101° East 321 369 15,800 -1,091 Level FlightAware ADS-B (EGHH / BOH)
Sun 03:20:53 AM 51.4807 -2.2125 102° East 320 368 15,600 -1,200 Descending FlightAware ADS-B (EGHH / BOH)
Sun 03:21:08 AM 51.4759 -2.1782 102° East 320 368 15,300 -1,500 Descending FlightAware ADS-B
Sun 03:21:13 AM 51.4739 -2.1648 103° East 321 369 15,100 -2,000 Descending FlightAware ADS-B
Sun 03:21:14 AM 51.4735 -2.1625 102° East 320 368 15,100 -1,091 Level FlightAware ADS-B (EGHH / BOH)
Sun 03:21:24 AM 51.4715 -2.1477 103° East 320 368 14,900 -1,000 Descending FlightAware ADS-B (EGLF / FAB)
Sun 03:21:32 AM 51.4682 -2.1257 101° East 318 366 14,800 -1,200 Descending FlightAware ADS-B (EGHI / SOU)
Sun 03:21:44 AM 51.4638 -2.0947 103° East 319 367 14,500 -1,579 Descending FlightAware ADS-B
Sun 03:21:51 AM 51.4622 -2.0833 103° East 318 366 14,300 -1,200 Descending FlightAware ADS-B
Sun 03:21:54 AM 51.4608 -2.0746 103° East 318 366 14,300 -923 Level FlightAware ADS-B (EGLF / FAB)
Sun 03:22:04 AM 51.4572 -2.0498 103° East 315 362 14,100 -923 Descending FlightAware ADS-B (EGLF / FAB)
Sun 03:22:07 AM 51.4565 -2.0448 102° East 315 362 14,100  Level FlightAware ADS-B
Sun 03:22:14 AM 51.4538 -2.0251 103° East 312 359 14,100  Level FlightAware ADS-B
Sun 03:22:22 AM 51.4514 -2.0093 103° East 313 360 14,100  Level FlightAware ADS-B (EGLF / FAB)
Sun 03:22:30 AM 51.4488 -1.9913 102° East 312 359 14,100  Level FlightAware ADS-B
Sun 03:22:36 AM 51.4467 -1.9766 102° East 314 361 14,100 -400 Level FlightAware ADS-B (LKVR)
Sun 03:22:45 AM 51.4437 -1.9557 103° East 317 365 14,000 -545 Descending FlightAware ADS-B
Sun 03:22:47 AM 51.4432 -1.9527 103° East 317 365 14,000  Level FlightAware ADS-B (EGHS)
Sun 03:22:51 AM 51.4418 -1.9430 102° East 315 362 14,000  Level FlightAware ADS-B
Sun 03:22:57 AM 51.4397 -1.9293 103° East 316 364 14,000  Level FlightAware ADS-B
Sun 03:23:05 AM 51.4371 -1.9101 102° East 315 362 14,000  Level FlightAware ADS-B (EGHH / BOH)
Sun 03:23:11 AM 51.4356 -1.8963 100° East 315 362 14,000  Level FlightAware ADS-B
Sun 03:23:12 AM 51.4352 -1.8941 99° East 314 361 14,000  Level FlightAware ADS-B (KSCH)
Sun 03:23:41 AM 51.4286 -1.8263 98° East 317 365 14,000  Level FlightAware ADS-B
Sun 03:23:42 AM 51.4286 -1.8263 98° East 317 365 14,000  Level FlightAware ADS-B (EGHA)
Sun 03:23:52 AM 51.4267 -1.8029 97° East 318 366 14,000  Level FlightAware ADS-B (EGDM)
Sun 03:23:57 AM 51.4257 -1.7894 96° East 317 365 14,000  Level FlightAware ADS-B (LKVR)
Sun 03:24:12 AM 51.4230 -1.7540 97° East 317 365 14,000  Level FlightAware ADS-B
Sun 03:24:15 AM 51.4225 -1.7475 96° East 317 365 14,000  Level FlightAware ADS-B (EGLF / FAB)
Sun 03:24:25 AM 51.4210 -1.7247 97° East 318 366 14,000 -429 Level FlightAware ADS-B (EGHA)
Sun 03:24:43 AM 51.4179 -1.6831 97° East 323 372 13,800 -800 Descending FlightAware ADS-B
Sun 03:24:55 AM 51.4158 -1.6538 97° East 321 369 13,600 -947 Descending FlightAware ADS-B (EGHH / BOH)
Sun 03:25:02 AM 51.4146 -1.6388 97° East 318 366 13,500 -947 Descending FlightAware ADS-B (EGLF / FAB)
Sun 03:25:14 AM 51.4128 -1.6099 96° East 316 364 13,300 -968 Descending FlightAware ADS-B
Sun 03:25:33 AM 51.4095 -1.5645 97° East 314 361 13,000 -968 Descending FlightAware ADS-B
Sun 03:25:45 AM 51.4073 -1.5371 97° East 312 359 12,800 -706 Descending FlightAware ADS-B
Sun 03:25:50 AM 51.4066 -1.5270 96° East 311 358 12,800 -1,091 Level FlightAware ADS-B (LKVR)
Sun 03:26:18 AM 51.4016 -1.4619 97° East 308 354 12,200 -1,161 Descending FlightAware ADS-B
Sun 03:26:21 AM 51.4013 -1.4565 96° East 308 354 12,200 -750 Level FlightAware ADS-B (EGHH / BOH)
Sun 03:26:42 AM 51.3975 -1.4088 96° East 309 356 11,900 -968 Descending FlightAware ADS-B (EGHH / BOH)
Sun 03:26:52 AM 51.3956 -1.3866 98° East 310 357 11,700 -1,091 Descending FlightAware ADS-B
Sun 03:26:53 AM 51.3954 -1.3834 96° East 309 356 11,700 -1,000 Level FlightAware ADS-B (EGHI / SOU)
Sun 03:27:22 AM 51.3903 -1.3177 97° East 309 356 11,200 -968 Descending FlightAware ADS-B
Sun 03:27:24 AM 51.3899 -1.3141 96° East 307 353 11,200 -500 Level FlightAware ADS-B (KSCH)
Sun 03:27:46 AM 51.3860 -1.2640 97° East 304 350 11,000 -522 Descending FlightAware ADS-B
Sun 03:27:47 AM 51.3860 -1.2640 97° East 304 350 11,000  Level FlightAware ADS-B
Sun 03:27:54 AM 51.3850 -1.2524 98° East 304 350 11,000  Level FlightAware ADS-B (EGLF / FAB)
Sun 03:27:59 AM 51.3838 -1.2365 96° East 304 350 11,000  Level FlightAware ADS-B (KSCH)
Sun 03:28:05 AM 51.3825 -1.2212 96° East 305 351 11,000  Level FlightAware ADS-B (EGHH / BOH)
Sun 03:28:11 AM 51.3815 -1.2086 97° East 306 352 11,000  Level FlightAware ADS-B
Sun 03:28:14 AM 51.3808 -1.2011 97° East 307 353 11,000  Level FlightAware ADS-B
Sun 03:28:17 AM 51.3803 -1.1951 98° East 307 353 11,000  Level FlightAware ADS-B
Sun 03:28:25 AM 51.3790 -1.1772 96° East 306 352 11,000  Level FlightAware ADS-B (EGHH / BOH)
Sun 03:28:35 AM 51.3770 -1.1537 96° East 306 352 11,000  Level FlightAware ADS-B (EGHH / BOH)
Sun 03:28:40 AM 51.3762 -1.1435 96° East 305 351 11,000  Level FlightAware ADS-B (KSCH)
Sun 03:28:44 AM 51.3753 -1.1337 97° East 306 352 11,000  Level FlightAware ADS-B
Sun 03:28:52 AM 51.3740 -1.1167 96° East 305 351 11,000  Level FlightAware ADS-B (EGHI / SOU)
Sun 03:29:05 AM 51.3721 -1.0930 97° East 305 351 11,000  Level FlightAware ADS-B
Sun 03:29:15 AM 51.3697 -1.0646 98° East 306 352 11,000  Level FlightAware ADS-B
Sun 03:29:19 AM 51.3690 -1.0552 96° East 305 351 11,000  Level FlightAware ADS-B (EGHH / BOH)
Sun 03:29:27 AM 51.3676 -1.0378 96° East 305 351 11,000  Level FlightAware ADS-B (KSCH)
Sun 03:29:31 AM 51.3668 -1.0293 96° East 305 351 11,000  Level FlightAware ADS-B (EGHH / BOH)
Sun 03:29:34 AM 51.3663 -1.0226 96° East 305 351 11,000  Level FlightAware ADS-B (EGHI / SOU)
Sun 03:29:41 AM 51.3650 -1.0073 97° East 306 352 11,000  Level FlightAware ADS-B
Sun 03:29:45 AM 51.3642 -0.9975 97° East 306 352 11,000  Level FlightAware ADS-B
Sun 03:29:53 AM 51.3628 -0.9805 96° East 305 351 11,000  Level FlightAware ADS-B (KSCH)
Sun 03:30:01 AM 51.3613 -0.9611 96° East 306 352 11,000  Level FlightAware ADS-B (EGHH / BOH)
Sun 03:30:05 AM 51.3608 -0.9544 96° East 307 353 11,000 -600 Level FlightAware ADS-B (KSCH)
Sun 03:30:11 AM 51.3596 -0.9395 97° East 310 357 10,900 -1,333 Descending FlightAware ADS-B
Sun 03:30:14 AM 51.3588 -0.9312 96° East 311 358 10,800 -1,500 Descending FlightAware ADS-B (EGHI / SOU)
Sun 03:30:15 AM 51.3587 -0.9290 98° East 313 360 10,800 -1,125 Level FlightAware ADS-B
Sun 03:30:30 AM 51.3558 -0.8963 98° East 310 357 10,500 -1,200 Descending FlightAware ADS-B
Sun 03:30:35 AM 51.3549 -0.8849 96° East 304 350 10,400 -500 Descending FlightAware ADS-B (EGHI / SOU)
Sun 03:30:42 AM 51.3537 -0.8717 98° East 300 345 10,400 -545 Level FlightAware ADS-B (EGLC / LCY)
Sun 03:30:46 AM 51.3528 -0.8612 98° East 297 342 10,300 -500 Descending FlightAware ADS-B
Sun 03:30:54 AM 51.3515 -0.8436 96° East 288 331 10,300  Level FlightAware ADS-B (EGHI / SOU)
Sun 03:31:16 AM 51.3477 -0.7984 98° East 268 308 10,300 -194 Level FlightAware ADS-B
Sun 03:31:25 AM 51.3467 -0.7874 98° East 266 306 10,200 -947 Descending FlightAware ADS-B (EGLF / FAB)
Sun 03:31:35 AM 51.3444 -0.7620 98° East 264 304 10,000 -1,091 Descending FlightAware ADS-B
Sun 03:31:36 AM 51.3443 -0.7599 97° East 264 304 10,000 -750 Level FlightAware ADS-B
Sun 03:31:43 AM 51.3433 -0.7464 98° East 266 306 9,900 -857 Descending FlightAware ADS-B (LKVR)
Sun 03:31:50 AM 51.3420 -0.7319 98° East 267 307 9,800 -1,500 Descending FlightAware ADS-B
Sun 03:31:51 AM 51.3419 -0.7301 97° East 267 307 9,700 -1,200 Descending FlightAware ADS-B
Sun 03:32:00 AM 51.3403 -0.7136 98° East 268 308 9,600 -800 Descending FlightAware ADS-B (EGHH / BOH)
Sun 03:32:06 AM 51.3393 -0.7019 98° East 268 308 9,500 -857 Descending FlightAware ADS-B
Sun 03:32:07 AM 51.3393 -0.7002 97° East 267 307 9,500 -1,200 Level FlightAware ADS-B
Sun 03:32:16 AM 51.3381 -0.6866 98° East 268 308 9,300 -1,286 Descending FlightAware ADS-B (EGLF / FAB)
Sun 03:32:21 AM 51.3367 -0.6722 98° East 265 305 9,200 -800 Descending FlightAware ADS-B
Sun 03:32:31 AM 51.3352 -0.6528 98° East 262 302 9,100 -800 Descending FlightAware ADS-B
Sun 03:32:36 AM 51.3343 -0.6426 98° East 258 297 9,000 -400 Descending FlightAware ADS-B
Sun 03:32:46 AM 51.3327 -0.6255 97° East 250 288 9,000  Level FlightAware ADS-B
Sun 03:32:53 AM 51.3317 -0.6125 98° East 244 281 9,000  Level FlightAware ADS-B
Sun 03:33:04 AM 51.3298 -0.5920 98° East 234 269 9,000  Level FlightAware ADS-B
Sun 03:33:05 AM 51.3300 -0.5934 98° East 234 269 9,000  Level FlightAware ADS-B (EGLF / FAB)
Sun 03:33:06 AM 51.3297 -0.5896 98° East 234 269 9,000  Level FlightAware ADS-B
Sun 03:33:20 AM 51.3274 -0.5646 98° East 233 268 9,000  Level FlightAware ADS-B
Sun 03:33:21 AM 51.3274 -0.5646 98° East 233 268 9,000  Level FlightAware ADS-B
Sun 03:33:27 AM 51.3266 -0.5548 97° East 234 269 9,000  Level FlightAware ADS-B
Sun 03:33:36 AM 51.3252 -0.5386 98° East 235 270 9,000  Level FlightAware ADS-B
Sun 03:33:37 AM 51.3249 -0.5363 98° East 236 272 9,000  Level FlightAware ADS-B
Sun 03:33:46 AM 51.3237 -0.5203 97° East 236 272 9,000  Level FlightAware ADS-B
Sun 03:33:50 AM 51.3230 -0.5138 98° East 236 272 9,000  Level FlightAware ADS-B
Sun 03:33:54 AM 51.3224 -0.5074 98° East 237 273 9,000  Level FlightAware ADS-B
Sun 03:34:05 AM 51.3208 -0.4879 98° East 236 272 9,000  Level FlightAware ADS-B
Sun 03:34:09 AM 51.3202 -0.4827 98° East 236 272 9,000  Level FlightAware ADS-B (EGLL / LHR)
Sun 03:34:20 AM 51.3185 -0.4616 98° East 236 272 9,000  Level FlightAware ADS-B
Sun 03:34:24 AM 51.3180 -0.4572 97° East 237 273 9,000  Level FlightAware ADS-B (EGLL / LHR)
Sun 03:34:26 AM 51.3178 -0.4523 96° East 236 272 9,000  Level FlightAware ADS-B
Sun 03:34:41 AM 51.3164 -0.4259 95° East 237 273 9,000  Level FlightAware ADS-B
Sun 03:34:49 AM 51.3156 -0.4109 97° East 237 273 9,000  Level FlightAware ADS-B
Sun 03:34:56 AM 51.3146 -0.3991 97° East 236 272 9,000  Level FlightAware ADS-B
Sun 03:34:59 AM 51.3142 -0.3947 95° East 235 270 9,000 -1,000 Level FlightAware ADS-B (KSCH)
Sun 03:35:02 AM 51.3139 -0.3905 97° East 235 270 8,900 -923 Descending FlightAware ADS-B
Sun 03:35:12 AM 51.3125 -0.3718 97° East 237 273 8,800 -923 Descending FlightAware ADS-B
Sun 03:35:15 AM 51.3123 -0.3687 97° East 237 273 8,700 -1,500 Descending FlightAware ADS-B
Sun 03:35:16 AM 51.3120 -0.3653 96° East 236 272 8,700 -857 Level FlightAware ADS-B
Sun 03:35:22 AM 51.3113 -0.3548 95° East 236 272 8,600 -1,000 Descending FlightAware ADS-B (KSCH)
Sun 03:35:28 AM 51.3104 -0.3435 97° East 236 272 8,500 -1,000 Descending FlightAware ADS-B
Sun 03:35:34 AM 51.3096 -0.3352 101° East 234 269 8,400 -857 Descending FlightAware ADS-B (EGLF / FAB)
Sun 03:35:35 AM 51.3094 -0.3329 102° East 233 268 8,400 -1,500 Level FlightAware ADS-B
Sun 03:35:38 AM 51.3084 -0.3271 109° East 232 267 8,300 -1,500 Descending FlightAware ADS-B
Sun 03:35:39 AM 51.3082 -0.3263 111° Southeast 232 267 8,300 -1,500 Level FlightAware ADS-B (EGLL / LHR)
Sun 03:35:42 AM 51.3068 -0.3214 116° Southeast 231 266 8,200 -1,500 Descending FlightAware ADS-B
Sun 03:35:43 AM 51.3067 -0.3207 119° Southeast 229 264 8,200  Level FlightAware ADS-B
Sun 03:35:46 AM 51.3042 -0.3146 126° Southeast 228 262 8,200 -857 Level FlightAware ADS-B
Sun 03:35:50 AM 51.3022 -0.3107 131° Southeast 228 262 8,100 -857 Descending FlightAware ADS-B
Sun 03:35:53 AM 51.3019 -0.3100 135° Southeast 228 262 8,100  Level FlightAware ADS-B
Sun 03:35:54 AM 51.2988 -0.3050 137° Southeast 229 264 8,100 -857 Level FlightAware ADS-B
Sun 03:36:00 AM 51.2936 -0.2985 145° Southeast 227 261 8,000 -667 Descending FlightAware ADS-B
Sun 03:36:03 AM 51.2921 -0.2972 151° Southeast 226 260 8,000  Level FlightAware ADS-B
Sun 03:36:06 AM 51.2887 -0.2940 154° Southeast 225 259 8,000  Level FlightAware ADS-B
Sun 03:36:09 AM 51.2854 -0.2918 159° South 225 259 8,000  Level FlightAware ADS-B
Sun 03:36:10 AM 51.2857 -0.2921 161° South 225 259 8,000  Level FlightAware ADS-B (EGLL / LHR)
Sun 03:36:15 AM 51.2811 -0.2898 167° South 226 260 8,000  Level FlightAware ADS-B (EGLF / FAB)
Sun 03:36:17 AM 51.2775 -0.2888 171° South 226 260 8,000  Level FlightAware ADS-B
Sun 03:36:21 AM 51.2737 -0.2882 177° South 227 261 8,000  Level FlightAware ADS-B
Sun 03:36:24 AM 51.2703 -0.2882 182° South 229 264 8,000  Level FlightAware ADS-B
Sun 03:36:27 AM 51.2770 -0.2885 176° South 227 261 8,000  Level FlightAware ADS-B
Sun 03:36:29 AM 51.2651 -0.2892 191° South 231 266 8,000  Level FlightAware ADS-B
Sun 03:36:33 AM 51.2605 -0.2911 197° South 234 269 8,000  Level FlightAware ADS-B
Sun 03:36:36 AM 51.2574 -0.2930 204° Southwest 236 272 8,000  Level FlightAware ADS-B
Sun 03:36:40 AM 51.2543 -0.2954 209° Southwest 237 273 8,000  Level FlightAware ADS-B
Sun 03:36:46 AM 51.2485 -0.3020 220° Southwest 241 277 8,000  Level FlightAware ADS-B
Sun 03:36:49 AM 51.2457 -0.3061 227° Southwest 243 280 8,000  Level FlightAware ADS-B
Sun 03:36:53 AM 51.2432 -0.3109 232° Southwest 245 282 8,000  Level FlightAware ADS-B
Sun 03:36:55 AM 51.2437 -0.3100 235° Southwest 245 282 8,000  Level FlightAware ADS-B (EGLL / LHR)
Sun 03:36:56 AM 51.2411 -0.3159 238° Southwest 246 283 8,000  Level FlightAware ADS-B
Sun 03:37:00 AM 51.2389 -0.3227 246° West 249 287 8,000  Level FlightAware ADS-B
Sun 03:37:02 AM 51.2382 -0.3251 249° West 250 288 8,000  Level FlightAware ADS-B
Sun 03:37:05 AM 51.2375 -0.3286 253° West 251 289 8,000  Level FlightAware ADS-B (EGLF / FAB)
Sun 03:37:06 AM 51.2366 -0.3332 257° West 252 290 8,000  Level FlightAware ADS-B
Sun 03:37:10 AM 51.2361 -0.3387 263° West 253 291 8,000  Level FlightAware ADS-B (EGLL / LHR)
Sun 03:37:11 AM 51.2358 -0.3423 264° West 253 291 8,000  Level FlightAware ADS-B
Sun 03:37:15 AM 51.2358 -0.3483 271° West 255 293 8,000  Level FlightAware ADS-B (EGHI / SOU)
Sun 03:37:18 AM 51.2361 -0.3546 279° West 257 296 8,000  Level FlightAware ADS-B
Sun 03:37:20 AM 51.2365 -0.3571 281° West 258 297 8,000  Level FlightAware ADS-B
Sun 03:37:22 AM 51.2372 -0.3619 284° West 259 298 8,000  Level FlightAware ADS-B
Sun 03:37:24 AM 51.2372 -0.3619 289° West 259 298 8,000  Level FlightAware ADS-B (EGLF / FAB)
Sun 03:37:26 AM 51.2389 -0.3697 293° West 260 299 8,000  Level FlightAware ADS-B
Sun 03:37:30 AM 51.2409 -0.3763 299° West 261 300 8,000  Level FlightAware ADS-B
Sun 03:37:31 AM 51.2409 -0.3767 300° West 262 302 8,000  Level FlightAware ADS-B
Sun 03:37:33 AM 51.2430 -0.3814 307° West 263 303 8,000  Level FlightAware ADS-B
Sun 03:37:34 AM 51.2433 -0.3819 314° West 264 304 8,000  Level FlightAware ADS-B (EGLF / FAB)
Sun 03:37:38 AM 51.2464 -0.3878 315° West 264 304 8,000  Level FlightAware ADS-B
Sun 03:37:40 AM 51.2480 -0.3900 318° Northwest 264 304 8,000  Level FlightAware ADS-B
Sun 03:37:41 AM 51.2493 -0.3921 320° Northwest 264 304 8,000  Level FlightAware ADS-B
Sun 03:37:45 AM 51.2533 -0.3967 325° Northwest 265 305 8,000  Level FlightAware ADS-B
Sun 03:38:00 AM 51.2689 -0.4130 327° Northwest 266 306 8,000  Level FlightAware ADS-B
Sun 03:38:02 AM 51.2706 -0.4147 327° Northwest 265 305 8,000  Level FlightAware ADS-B
Sun 03:38:04 AM 51.2727 -0.4168 328° Northwest 265 305 8,000  Level FlightAware ADS-B
Sun 03:38:13 AM 51.2825 -0.4264 329° Northwest 263 303 8,000  Level FlightAware ADS-B
Sun 03:38:19 AM 51.2791 -0.4231 329° Northwest 263 303 8,000  Level FlightAware ADS-B
Sun 03:38:22 AM 51.2904 -0.4340 330° Northwest 262 302 8,000  Level FlightAware ADS-B
Sun 03:38:27 AM 51.2969 -0.4400 330° Northwest 262 302 8,000  Level FlightAware ADS-B
Sun 03:38:32 AM 51.3022 -0.4443 336° Northwest 261 300 8,000  Level FlightAware ADS-B
Sun 03:38:34 AM 51.3042 -0.4455 341° North 260 299 8,000  Level FlightAware ADS-B (EGLF / FAB)
Sun 03:38:35 AM 51.3058 -0.4463 344° North 259 298 8,000  Level FlightAware ADS-B
Sun 03:38:36 AM 51.3063 -0.4465 346° North 258 297 8,000  Level FlightAware ADS-B
Sun 03:38:38 AM 51.3094 -0.4477 351° North 257 296 8,000  Level FlightAware ADS-B
Sun 03:38:41 AM 51.3122 -0.4484 356° North 254 292 8,000  Level FlightAware ADS-B
Sun 03:38:44 AM 51.3159 -0.4485 357° North 253 291 8,000  Level FlightAware ADS-B (EGLF / FAB)
Sun 03:38:46 AM 51.3192 -0.4482 North 252 290 8,000  Level FlightAware ADS-B
Sun 03:38:49 AM 51.3221 -0.4475 12° North 250 288 8,000  Level FlightAware ADS-B
Sun 03:38:51 AM 51.3240 -0.4468 16° North 249 287 8,000  Level FlightAware ADS-B
Sun 03:38:55 AM 51.3283 -0.4446 21° North 249 287 8,000  Level FlightAware ADS-B
Sun 03:38:56 AM 51.3271 -0.4453 23° Northeast 249 287 8,000  Level FlightAware ADS-B
Sun 03:38:59 AM 51.3328 -0.4415 25° Northeast 249 287 8,000  Level FlightAware ADS-B
Sun 03:39:15 AM 51.3487 -0.4295 24° Northeast 252 290 8,000  Level FlightAware ADS-B
Sun 03:39:16 AM 51.3509 -0.4279 24° Northeast 251 289 8,000  Level FlightAware ADS-B
Sun 03:39:30 AM 51.3619 -0.4202 24° Northeast 250 288 8,000  Level FlightAware ADS-B
Sun 03:39:33 AM 51.3685 -0.4156 24° Northeast 250 288 8,000  Level FlightAware ADS-B
Sun 03:39:36 AM 51.3721 -0.4130 23° Northeast 249 287 8,000  Level FlightAware ADS-B
Sun 03:39:47 AM 51.3822 -0.4060 23° Northeast 249 287 8,000  Level FlightAware ADS-B
Sun 03:39:49 AM 51.3855 -0.4037 23° Northeast 250 288 8,000  Level FlightAware ADS-B
Sun 03:39:51 AM 51.3882 -0.4020 19° North 249 287 8,000  Level FlightAware ADS-B
Sun 03:39:52 AM 51.3887 -0.4018 19° North 250 288 8,000  Level FlightAware ADS-B
Sun 03:39:55 AM 51.3911 -0.4006 16° North 251 289 8,000  Level FlightAware ADS-B (EGLF / FAB)
Sun 03:39:56 AM 51.3932 -0.3998 11° North 251 289 8,000  Level FlightAware ADS-B
Sun 03:39:58 AM 51.3963 -0.3991 North 252 290 8,000  Level FlightAware ADS-B
Sun 03:40:01 AM 51.3999 -0.3989 North 254 292 8,000  Level FlightAware ADS-B
Sun 03:40:02 AM 51.3992 -0.3989 359° North 254 292 8,000  Level FlightAware ADS-B
Sun 03:40:06 AM 51.4050 -0.3998 351° North 255 293 8,000  Level FlightAware ADS-B
Sun 03:40:07 AM 51.4069 -0.4003 346° North 256 295 8,000  Level FlightAware ADS-B
Sun 03:40:08 AM 51.4076 -0.4006 346° North 256 295 8,000  Level FlightAware ADS-B
Sun 03:40:11 AM 51.4109 -0.4023 340° North 257 296 8,000  Level FlightAware ADS-B
Sun 03:40:14 AM 51.4147 -0.4050 333° Northwest 258 297 8,000  Level FlightAware ADS-B
Sun 03:40:16 AM 51.4160 -0.4063 330° Northwest 258 297 8,000  Level FlightAware ADS-B
Sun 03:40:17 AM 51.4178 -0.4078 327° Northwest 259 298 8,000  Level FlightAware ADS-B
Sun 03:40:21 AM 51.4212 -0.4120 321° Northwest 260 299 8,000  Level FlightAware ADS-B
Sun 03:40:22 AM 51.4227 -0.4141 317° Northwest 261 300 8,000  Level FlightAware ADS-B
Sun 03:40:26 AM 51.4251 -0.4182 311° West 262 302 8,000  Level FlightAware ADS-B
Sun 03:40:28 AM 51.4270 -0.4219 307° West 263 303 8,000  Level FlightAware ADS-B (EGLC / LCY)
Sun 03:40:29 AM 51.4277 -0.4235 305° West 264 304 8,000  Level FlightAware ADS-B
Sun 03:40:31 AM 51.4287 -0.4261 301° West 264 304 8,000  Level FlightAware ADS-B (EGLL / LHR)
Sun 03:40:32 AM 51.4291 -0.4268 300° West 264 304 8,000  Level FlightAware ADS-B
Sun 03:40:33 AM 51.4299 -0.4295 298° West 264 304 8,000  Level FlightAware ADS-B
Sun 03:40:34 AM 51.4305 -0.4312 292° West 261 300 8,000  Level FlightAware ADS-B (EGHI / SOU)
Sun 03:40:36 AM 51.4317 -0.4355 293° West 264 304 8,000  Level FlightAware ADS-B
Sun 03:40:37 AM 51.4320 -0.4370 289° West 265 305 8,000  Level FlightAware ADS-B
Sun 03:40:41 AM 51.4333 -0.4453 282° West 264 304 8,000  Level FlightAware ADS-B
Sun 03:40:45 AM 51.4340 -0.4521 275° West 264 304 8,000  Level FlightAware ADS-B
Sun 03:40:46 AM 51.4342 -0.4546 274° West 263 303 8,000  Level FlightAware ADS-B
Sun 03:40:48 AM 51.4342 -0.4585 269° West 263 303 8,000  Level FlightAware ADS-B
Sun 03:40:51 AM 51.4339 -0.4651 263° West 261 300 8,000  Level FlightAware ADS-B
Sun 03:40:53 AM 51.4335 -0.4681 260° West 261 300 8,000  Level FlightAware ADS-B
Sun 03:40:55 AM 51.4335 -0.4691 259° West 261 300 8,000  Level FlightAware ADS-B (EGLF / FAB)
Sun 03:40:56 AM 51.4328 -0.4736 254° West 260 299 8,000  Level FlightAware ADS-B
Sun 03:40:59 AM 51.4315 -0.4794 249° West 258 297 8,000  Level FlightAware ADS-B
Sun 03:41:01 AM 51.4308 -0.4822 246° West 257 296 8,000  Level FlightAware ADS-B
Sun 03:41:02 AM 51.4318 -0.4781 245° Southwest 256 295 8,000  Level FlightAware ADS-B (EGLL / LHR)
Sun 03:41:06 AM 51.4278 -0.4910 241° Southwest 256 295 8,000  Level FlightAware ADS-B
Sun 03:41:14 AM 51.4232 -0.5045 241° Southwest 256 295 8,000  Level FlightAware ADS-B (EGLC / LCY)
Sun 03:41:16 AM 51.4220 -0.5077 241° Southwest 256 295 8,000  Level FlightAware ADS-B
Sun 03:41:30 AM 51.4141 -0.5310 242° Southwest 255 293 8,000  Level FlightAware ADS-B
Sun 03:41:32 AM 51.4133 -0.5337 242° Southwest 255 293 8,000  Level FlightAware ADS-B
Sun 03:41:35 AM 51.4114 -0.5390 244° Southwest 250 288 8,000  Level FlightAware ADS-B (EGHI / SOU)
Sun 03:41:36 AM 51.4107 -0.5412 243° Southwest 253 291 8,000  Level FlightAware ADS-B
Sun 03:41:46 AM 51.4057 -0.5565 242° Southwest 252 290 8,000  Level FlightAware ADS-B
Sun 03:41:50 AM 51.4037 -0.5627 242° Southwest 252 290 8,000  Level FlightAware ADS-B (EGLC / LCY)
Sun 03:41:56 AM 51.3999 -0.5739 242° Southwest 252 290 8,000  Level FlightAware ADS-B
Sun 03:42:01 AM 51.3975 -0.5812 242° Southwest 255 293 8,000  Level FlightAware ADS-B
Sun 03:42:05 AM 51.3966 -0.5838 242° Southwest 255 293 8,000  Level FlightAware ADS-B (EGLF / FAB)
Sun 03:42:07 AM 51.3940 -0.5915 244° Southwest 256 295 8,000  Level FlightAware ADS-B
Sun 03:42:10 AM 51.3923 -0.5982 250° West 257 296 8,000  Level FlightAware ADS-B
Sun 03:42:11 AM 51.3925 -0.5970 248° West 256 295 8,000  Level FlightAware ADS-B
Sun 03:42:13 AM 51.3913 -0.6032 255° West 258 297 8,000  Level FlightAware ADS-B
Sun 03:42:14 AM 51.3910 -0.6051 256° West 258 297 8,000  Level FlightAware ADS-B (EGHH / BOH)
Sun 03:42:16 AM 51.3906 -0.6077 261° West 259 298 8,000  Level FlightAware ADS-B
Sun 03:42:18 AM 51.3905 -0.6111 262° West 260 299 8,000 -1,200 Level FlightAware ADS-B
Sun 03:42:21 AM 51.3901 -0.6176 270° West 260 299 7,900 -1,000 Descending FlightAware ADS-B
Sun 03:42:24 AM 51.3903 -0.6238 274° West 261 300 7,900 -1,200 Level FlightAware ADS-B (EGHH / BOH)
Sun 03:42:26 AM 51.3906 -0.6279 277° West 261 300 7,800 -2,000 Descending FlightAware ADS-B
Sun 03:42:27 AM 51.3906 -0.6288 276° West 262 302 7,800 -923 Level FlightAware ADS-B
Sun 03:42:39 AM 51.3923 -0.6521 277° West 263 303 7,600 -1,286 Descending FlightAware ADS-B
Sun 03:42:41 AM 51.3927 -0.6553 277° West 263 303 7,500 -1,000 Descending FlightAware ADS-B
Sun 03:42:45 AM 51.3930 -0.6614 276° West 265 305 7,500 -923 Level FlightAware ADS-B (EGLF / FAB)
Sun 03:42:54 AM 51.3944 -0.6818 276° West 267 307 7,300 -1,200 Descending FlightAware ADS-B
Sun 03:42:55 AM 51.3944 -0.6834 274° West 268 308 7,300  Level FlightAware ADS-B (EGHI / SOU)
Sun 03:42:56 AM 51.3946 -0.6854 276° West 268 308 7,300 -1,200 Level FlightAware ADS-B
Sun 03:43:00 AM 51.3951 -0.6934 276° West 269 310 7,200 -923 Descending FlightAware ADS-B (EGLC / LCY)
Sun 03:43:09 AM 51.3961 -0.7119 275° West 268 308 7,100 -800 Descending FlightAware ADS-B
Sun 03:43:15 AM 51.3968 -0.7232 273° West 266 306 7,000 -1,125 Descending FlightAware ADS-B (EGHI / SOU)
Sun 03:43:25 AM 51.3978 -0.7421 275° West 265 305 6,800 -1,000 Descending FlightAware ADS-B
Sun 03:43:27 AM 51.3980 -0.7455 276° West 268 308 6,800 -1,333 Level FlightAware ADS-B
Sun 03:43:34 AM 51.3987 -0.7579 275° West 263 303 6,600 -1,385 Descending FlightAware ADS-B (EGLL / LHR)
Sun 03:43:40 AM 51.3993 -0.7714 275° West 260 299 6,500 -750 Descending FlightAware ADS-B
Sun 03:43:50 AM 51.4002 -0.7883 275° West 257 296 6,400 -800 Descending FlightAware ADS-B (EGLL / LHR)
Sun 03:43:55 AM 51.4007 -0.7999 275° West 255 293 6,300 -800 Descending FlightAware ADS-B
Sun 03:44:05 AM 51.4018 -0.8171 275° West 246 283 6,200 -545 Descending FlightAware ADS-B (EGLL / LHR)
Sun 03:44:06 AM 51.4020 -0.8200 276° West 245 282 6,200 -2,000 Level FlightAware ADS-B
Sun 03:44:08 AM 51.4021 -0.8233 276° West 242 278 6,100 -1,200 Descending FlightAware ADS-B (EGLC / LCY)
Sun 03:44:11 AM 51.4025 -0.8293 275° West 240 276 6,100  Level FlightAware ADS-B
Sun 03:44:13 AM 51.4028 -0.8329 274° West 241 277 6,100 -857 Level FlightAware ADS-B (EGHI / SOU)
Sun 03:44:18 AM 51.4030 -0.8381 274° West 234 269 6,000 -857 Descending FlightAware ADS-B (EGHH / BOH)
Sun 03:44:27 AM 51.4042 -0.8557 276° West 228 262 5,900 -923 Descending FlightAware ADS-B
Sun 03:44:31 AM 51.4045 -0.8618 276° West 231 266 5,800 -750 Descending FlightAware ADS-B
Sun 03:44:35 AM 51.4050 -0.8678 276° West 222 255 5,800 -750 Level FlightAware ADS-B (EGLF / FAB)
Sun 03:44:39 AM 51.4057 -0.8762 280° West 220 253 5,700 -1,000 Descending FlightAware ADS-B
Sun 03:44:41 AM 51.4059 -0.8777 284° West 219 252 5,700  Level FlightAware ADS-B
Sun 03:44:43 AM 51.4066 -0.8822 288° West 219 252 5,700  Level FlightAware ADS-B
Sun 03:44:44 AM 51.4066 -0.8818 289° West 220 253 5,700 -2,000 Level FlightAware ADS-B (EGLF / FAB)
Sun 03:44:46 AM 51.4080 -0.8871 296° West 220 253 5,600 -1,200 Descending FlightAware ADS-B
Sun 03:44:49 AM 51.4085 -0.8890 303° West 220 253 5,600  Level FlightAware ADS-B (EGLL / LHR)
Sun 03:44:50 AM 51.4095 -0.8921 303° West 220 253 5,600 -1,500 Level FlightAware ADS-B
Sun 03:44:53 AM 51.4119 -0.8966 310° West 219 252 5,500 -1,200 Descending FlightAware ADS-B
Sun 03:44:55 AM 51.4121 -0.8971 311° West 219 252 5,500  Level FlightAware ADS-B (EGLF / FAB)
Sun 03:44:56 AM 51.4131 -0.8988 317° Northwest 217 250 5,500  Level FlightAware ADS-B
Sun 03:44:58 AM 51.4126 -0.8978 322° Northwest 215 247 5,500 -1,200 Level FlightAware ADS-B (EGLF / FAB)
Sun 03:45:01 AM 51.4179 -0.9046 330° Northwest 212 244 5,400 -1,000 Descending FlightAware ADS-B
Sun 03:45:04 AM 51.4208 -0.9069 336° Northwest 210 242 5,400  Level FlightAware ADS-B
Sun 03:45:05 AM 51.4194 -0.9060 337° Northwest 211 243 5,400 -1,200 Level FlightAware ADS-B (EGLF / FAB)
Sun 03:45:09 AM 51.4248 -0.9090 346° North 207 238 5,300 -857 Descending FlightAware ADS-B
Sun 03:45:12 AM 51.4275 -0.9100 350° North 205 236 5,300  Level FlightAware ADS-B
Sun 03:45:15 AM 51.4294 -0.9105 351° North 204 235 5,300 -1,500 Level FlightAware ADS-B (EGLF / FAB)
Sun 03:45:16 AM 51.4322 -0.9110 353° North 204 235 5,200 -1,500 Descending FlightAware ADS-B
Sun 03:45:19 AM 51.4193 -0.9058 337° Northwest 210 242 5,200  Level FlightAware ADS-B
Sun 03:45:24 AM 51.4387 -0.9124 353° North 206 237 5,200 -1,091 Level FlightAware ADS-B
Sun 03:45:30 AM 51.4452 -0.9135 353° North 208 239 5,000 -1,000 Descending FlightAware ADS-B
Sun 03:45:42 AM 51.4545 -0.9158 352° North 208 239 4,900 -750 Descending FlightAware ADS-B
Sun 03:45:46 AM 51.4601 -0.9168 357° North 205 236 4,800 -1,500 Descending FlightAware ADS-B
Sun 03:45:50 AM 51.4639 -0.9168 North 201 231 4,700 -667 Descending FlightAware ADS-B
Sun 03:45:55 AM 51.4679 -0.9155 17° North 195 224 4,700 -750 Level FlightAware ADS-B
Sun 03:45:58 AM 51.4704 -0.9139 24° Northeast 191 220 4,600 -857 Descending FlightAware ADS-B (EGLF / FAB)
Sun 03:46:02 AM 51.4730 -0.9115 34° Northeast 185 213 4,600 -857 Level FlightAware ADS-B
Sun 03:46:05 AM 51.4754 -0.9084 44° Northeast 182 209 4,500 -1,500 Descending FlightAware ADS-B
Sun 03:46:06 AM 51.4757 -0.9079 47° Northeast 181 208 4,500  Level FlightAware ADS-B
Sun 03:46:08 AM 51.4771 -0.9053 52° Northeast 179 206 4,500 -1,200 Level FlightAware ADS-B
Sun 03:46:11 AM 51.4787 -0.9015 58° Northeast 176 203 4,400 -1,000 Descending FlightAware ADS-B
Sun 03:46:14 AM 51.4797 -0.8988 61° Northeast 176 203 4,400  Level FlightAware ADS-B
Sun 03:46:17 AM 51.4789 -0.9010 64° Northeast 176 203 4,400  Level FlightAware ADS-B
Sun 03:46:18 AM 51.4814 -0.8937 64° Northeast 175 201 4,400  Level FlightAware ADS-B
Sun 03:46:21 AM 51.4819 -0.8917 68° East 176 203 4,400 -1,500 Level FlightAware ADS-B (EGLL / LHR)
Sun 03:46:22 AM 51.4826 -0.8889 69° East 177 204 4,300 -2,000 Descending FlightAware ADS-B
Sun 03:46:24 AM 51.4828 -0.8883 70° East 177 204 4,300  Level FlightAware ADS-B (EGLF / FAB)
Sun 03:46:29 AM 51.4844 -0.8810 74° East 176 203 4,300 -857 Level FlightAware ADS-B
Sun 03:46:31 AM 51.4847 -0.8785 75° East 174 200 4,200 -1,200 Descending FlightAware ADS-B
Sun 03:46:34 AM 51.4852 -0.8745 79° East 172 198 4,200  Level FlightAware ADS-B
Sun 03:46:35 AM 51.4852 -0.8748 79° East 172 198 4,200 -2,000 Level FlightAware ADS-B (EGLF / FAB)
Sun 03:46:37 AM 51.4855 -0.8712 81° East 170 196 4,100 -2,000 Descending FlightAware ADS-B
Sun 03:46:38 AM 51.4857 -0.8696 83° East 170 196 4,100  Level FlightAware ADS-B
Sun 03:46:41 AM 51.4859 -0.8661 86° East 168 193 4,100  Level FlightAware ADS-B
Sun 03:46:42 AM 51.4861 -0.8638 87° East 168 193 4,100 -2,000 Level FlightAware ADS-B
Sun 03:46:44 AM 51.4861 -0.8615 86° East 168 193 4,000 -667 Descending FlightAware ADS-B
Sun 03:46:51 AM 51.4862 -0.8533 90° East 166 191 4,000 -375 Level FlightAware ADS-B
Sun 03:47:00 AM 51.4861 -0.8414 90° East 166 191 3,900 -600 Descending FlightAware ADS-B
Sun 03:47:01 AM 51.4861 -0.8420 90° East 167 192 3,900 -400 Level FlightAware ADS-B
Sun 03:47:15 AM 51.4862 -0.8234 90° East 170 196 3,800 -400 Descending FlightAware ADS-B
Sun 03:47:16 AM 51.4862 -0.8234 89° East 170 196 3,800 -857 Level FlightAware ADS-B
Sun 03:47:22 AM 51.4862 -0.8168 90° East 170 196 3,700 -462 Descending FlightAware ADS-B (EGLL / LHR)
Sun 03:47:29 AM 51.4862 -0.8060 90° East 169 194 3,700 -375 Level FlightAware ADS-B
Sun 03:47:38 AM 51.4862 -0.7941 90° East 169 194 3,600 -545 Descending FlightAware ADS-B (EGLF / FAB)
Sun 03:47:40 AM 51.4862 -0.7917 89° East 169 194 3,600 -500 Level FlightAware ADS-B
Sun 03:47:50 AM 51.4864 -0.7799 90° East 168 193 3,500 -545 Descending FlightAware ADS-B
Sun 03:47:51 AM 51.4864 -0.7791 89° East 168 193 3,500 -400 Level FlightAware ADS-B
Sun 03:48:05 AM 51.4864 -0.7611 89° East 166 191 3,400 -462 Descending FlightAware ADS-B
Sun 03:48:17 AM 51.4866 -0.7459 89° East 165 190 3,300 -353 Descending FlightAware ADS-B
Sun 03:48:22 AM 51.4866 -0.7401 90° East 163 188 3,300  Level FlightAware ADS-B
Sun 03:48:32 AM 51.4867 -0.7278 90° East 156 180 3,300 -429 Level FlightAware ADS-B
Sun 03:48:36 AM 51.4867 -0.7237 90° East 154 177 3,200 -1,200 Descending FlightAware ADS-B
Sun 03:48:37 AM 51.4867 -0.7230 90° East 154 177 3,200 -500 Level FlightAware ADS-B (EGLL / LHR)
Sun 03:48:48 AM 51.4867 -0.7103 90° East 152 175 3,100 -857 Descending FlightAware ADS-B
Sun 03:48:51 AM 51.4867 -0.7069 89° East 151 174 3,000 -1,000 Descending FlightAware ADS-B
Sun 03:48:54 AM 51.4867 -0.7045 89° East 150 173 3,000  Level FlightAware ADS-B (EGLL / LHR)
Sun 03:48:55 AM 51.4869 -0.7016 89° East 150 173 3,000 -1,333 Level FlightAware ADS-B
Sun 03:49:03 AM 51.4869 -0.6931 90° East 148 170 2,800 -1,333 Descending FlightAware ADS-B
Sun 03:49:04 AM 51.4869 -0.6921 90° East 147 169 2,800  Level FlightAware ADS-B
Sun 03:49:06 AM 51.4869 -0.6904 89° East 147 169 2,800 -857 Level FlightAware ADS-B
Sun 03:49:18 AM 51.4871 -0.6772 90° East 146 168 2,600 -462 Descending FlightAware ADS-B
Sun 03:49:19 AM 51.4869 -0.6783 90° East 146 168 2,700  Climbing FlightAware ADS-B
Sun 03:49:21 AM 51.4871 -0.6734 89° East 147 169 2,600 -1,286 Descending FlightAware ADS-B
Sun 03:49:33 AM 51.4871 -0.6607 89° East 146 168 2,400 -750 Descending FlightAware ADS-B
Sun 03:49:37 AM 51.4871 -0.6569 89° East 146 168 2,400 -462 Level FlightAware ADS-B
Sun 03:49:46 AM 51.4871 -0.6463 90° East 146 168 2,300 -857 Descending FlightAware ADS-B
Sun 03:49:51 AM 51.4872 -0.6418 89° East 145 167 2,200 -857 Descending FlightAware ADS-B
Sun 03:49:53 AM 51.4872 -0.6412 90° East 145 167 2,200  Level FlightAware ADS-B (EGLL / LHR)
Sun 03:49:54 AM 51.4872 -0.6377 89° East 145 167 2,200 -923 Level FlightAware ADS-B
Sun 03:50:06 AM 51.4872 -0.6291 89° East 145 167 2,000 -1,000 Descending FlightAware ADS-B
Sun 03:50:12 AM 51.4872 -0.6194 89° East 142 163 1,900 -857 Descending FlightAware ADS-B
Sun 03:50:20 AM 51.4874 -0.6104 90° East 144 166 1,800 -667 Descending FlightAware ADS-B
Sun 03:50:21 AM 51.4874 -0.6094 90° East 144 166 1,800  Level FlightAware ADS-B
Sun 03:50:23 AM 51.4874 -0.6068 90° East 144 166 1,800 -2,000 Level FlightAware ADS-B
Sun 03:50:24 AM 51.4874 -0.6062 90° East 143 165 1,700 -857 Descending FlightAware ADS-B (EGLL / LHR)
Sun 03:50:37 AM 51.4874 -0.5936 89° East 134 154 1,600 -400 Descending FlightAware ADS-B
Sun 03:50:39 AM 51.4874 -0.5910 90° East 134 154 1,600 -857 Level FlightAware ADS-B (EGLL / LHR)
Sun 03:50:51 AM 51.4876 -0.5786 90° East 132 152 1,400 -818 Descending FlightAware ADS-B
Sun 03:51:01 AM 51.4876 -0.5711 90° East 133 153 1,300 -800 Descending FlightAware ADS-B
Sun 03:51:06 AM 51.4876 -0.5646 88° East 133 153 1,200 -947 Descending FlightAware ADS-B
Sun 03:51:20 AM 51.4878 -0.5517 89° East 133 153 1,000 -800 Descending FlightAware ADS-B
Sun 03:51:21 AM 51.4878 -0.5495 89° East 133 153 1,000 -706 Level FlightAware ADS-B
Sun 03:51:37 AM 51.4878 -0.5342 89° East 135 155 800 -667 Descending FlightAware ADS-B
Sun 03:51:39 AM 51.4878 -0.5334 90° East 135 155 800 -857 Level FlightAware ADS-B (EGLL / LHR)
Sun 03:51:51 AM 51.4879 -0.5198 89° East 135 155 600 -857 Descending FlightAware ADS-B
Sun 03:52:00 AM 51.4879 -0.5109 90° East 134 154 500 -800 Descending FlightAware ADS-B
Sun 03:52:06 AM 51.4879 -0.5045 90° East 134 154 400 -194 Descending FlightAware ADS-B
Sun 03:52:31 AM 51.4881 -0.4844 90° East 72 83 400  Level FlightAware ADS-B (EGLL / LHR)

Login

Don't have an account? Register now (free) for customized features, flight alerts, and more!